<?xml version='1.0' encoding='UTF-8'?><gpx version="1.1" creator="JPX - https://github.com/jenetics/jpx" xmlns="http://www.topografix.com/GPX/1/1"><trk><trkseg><trkpt lat="44.98249813871402" lon="-0.603154402159946"><ele>11.0</ele><time>2026-04-02T07:13:47.052Z</time></trkpt><trkpt lat="44.982421874613294" lon="-0.6031922157888181"><ele>11.0</ele><time>2026-04-02T07:13:56Z</time></trkpt><trkpt lat="44.98234780713745" lon="-0.6031965388748758"><ele>11.0</ele><time>2026-04-02T07:14:01Z</time></trkpt><trkpt lat="44.982270661485316" lon="-0.6032191053278363"><ele>11.0</ele><time>2026-04-02T07:14:06Z</time></trkpt><trkpt lat="44.98219297162164" lon="-0.6032346574013704"><ele>11.0</ele><time>2026-04-02T07:14:11Z</time></trkpt><trkpt lat="44.982131256265696" lon="-0.6032584330516932"><ele>11.0</ele><time>2026-04-02T07:14:15Z</time></trkpt><trkpt lat="44.98206311790112" lon="-0.6032608908241067"><ele>11.0</ele><time>2026-04-02T07:14:19Z</time></trkpt><trkpt lat="44.98199578274301" lon="-0.6032524893556622"><ele>11.0</ele><time>2026-04-02T07:14:23Z</time></trkpt><trkpt lat="44.98193211807611" lon="-0.6032495333145854"><ele>11.0</ele><time>2026-04-02T07:14:27Z</time></trkpt><trkpt lat="44.981867040262614" lon="-0.603254853617684"><ele>11.0</ele><time>2026-04-02T07:14:31Z</time></trkpt><trkpt lat="44.98180041388611" lon="-0.6032597481139511"><ele>11.0</ele><time>2026-04-02T07:14:35Z</time></trkpt><trkpt lat="44.981741549748264" lon="-0.6032192127571584"><ele>11.0</ele><time>2026-04-02T07:14:39Z</time></trkpt><trkpt lat="44.98174113186324" lon="-0.6031146327899802"><ele>11.0</ele><time>2026-04-02T07:14:43Z</time></trkpt><trkpt lat="44.981734471309096" lon="-0.6030238161572923"><ele>11.0</ele><time>2026-04-02T07:14:47Z</time></trkpt><trkpt lat="44.98173241785896" lon="-0.6029253079296629"><ele>10.857142857142858</ele><time>2026-04-02T07:14:51Z</time></trkpt><trkpt lat="44.98173812080478" lon="-0.6028241242725745"><ele>10.714285714285714</ele><time>2026-04-02T07:14:55Z</time></trkpt><trkpt lat="44.98173094141947" lon="-0.6027178295689682"><ele>10.571428571428571</ele><time>2026-04-02T07:14:59Z</time></trkpt><trkpt lat="44.98171478926399" lon="-0.6025982344225521"><ele>10.428571428571429</ele><time>2026-04-02T07:15:03Z</time></trkpt><trkpt lat="44.98169953102447" lon="-0.6024981783990199"><ele>10.285714285714286</ele><time>2026-04-02T07:15:06Z</time></trkpt><trkpt lat="44.981691380113546" lon="-0.6023915769574675"><ele>10.142857142857142</ele><time>2026-04-02T07:15:10Z</time></trkpt><trkpt lat="44.98167036088874" lon="-0.6023011352995977"><ele>10.0</ele><time>2026-04-02T07:15:13Z</time></trkpt><trkpt lat="44.981661099797115" lon="-0.6021978404571467"><ele>10.0</ele><time>2026-04-02T07:15:16Z</time></trkpt><trkpt lat="44.98165129876971" lon="-0.6021043055968656"><ele>10.0</ele><time>2026-04-02T07:15:19Z</time></trkpt><trkpt lat="44.98164802404807" lon="-0.6020064669931168"><ele>10.0</ele><time>2026-04-02T07:15:22Z</time></trkpt><trkpt lat="44.98166348309539" lon="-0.6019015695296414"><ele>10.0</ele><time>2026-04-02T07:15:25Z</time></trkpt><trkpt lat="44.9816492480083" lon="-0.6018102226090246"><ele>10.0</ele><time>2026-04-02T07:15:28Z</time></trkpt><trkpt lat="44.98164754777251" lon="-0.6016679210241301"><ele>10.0</ele><time>2026-04-02T07:15:32Z</time></trkpt><trkpt lat="44.9816465412059" lon="-0.6015467161921514"><ele>9.5</ele><time>2026-04-02T07:15:35Z</time></trkpt><trkpt lat="44.98163436081536" lon="-0.6014294619255248"><ele>9.0</ele><time>2026-04-02T07:15:38Z</time></trkpt><trkpt lat="44.98161414781207" lon="-0.6013450209286202"><ele>8.5</ele><time>2026-04-02T07:15:40Z</time></trkpt><trkpt lat="44.98159355913347" lon="-0.6012553159606404"><ele>8.0</ele><time>2026-04-02T07:15:42Z</time></trkpt><trkpt lat="44.98157169038152" lon="-0.6011499401478183"><ele>7.500000000000001</ele><time>2026-04-02T07:15:45Z</time></trkpt><trkpt lat="44.981532596981346" lon="-0.601043004226918"><ele>7.0</ele><time>2026-04-02T07:15:48Z</time></trkpt><trkpt lat="44.981475840411434" lon="-0.6009594521875437"><ele>6.500000000000001</ele><time>2026-04-02T07:15:51Z</time></trkpt><trkpt lat="44.98141214601369" lon="-0.6008910926689742"><ele>6.0</ele><time>2026-04-02T07:15:54Z</time></trkpt><trkpt lat="44.98135959848329" lon="-0.6008336474432733"><ele>5.5</ele><time>2026-04-02T07:15:57Z</time></trkpt><trkpt lat="44.9814202911904" lon="-0.6009122570003387"><ele>5.0</ele><time>2026-04-02T07:16:01Z</time></trkpt><trkpt lat="44.98148854539571" lon="-0.6009787229440372"><ele>4.5</ele><time>2026-04-02T07:16:04Z</time></trkpt><trkpt lat="44.981525006850255" lon="-0.6010563162192919"><ele>4.0</ele><time>2026-04-02T07:16:07Z</time></trkpt><trkpt lat="44.98155250234007" lon="-0.601151152836765"><ele>4.0</ele><time>2026-04-02T07:16:10Z</time></trkpt><trkpt lat="44.98157515616847" lon="-0.6012566025580299"><ele>3.9999999999999996</ele><time>2026-04-02T07:16:13Z</time></trkpt><trkpt lat="44.98156238568937" lon="-0.6011472525621221"><ele>4.0</ele><time>2026-04-02T07:16:26Z</time></trkpt><trkpt lat="44.98154261039369" lon="-0.6010459497271643"><ele>4.0</ele><time>2026-04-02T07:16:31Z</time></trkpt><trkpt lat="44.981500891245396" lon="-0.6009657700001413"><ele>3.9999999999999996</ele><time>2026-04-02T07:16:37Z</time></trkpt><trkpt lat="44.98145221137992" lon="-0.6009060739983204"><ele>4.0</ele><time>2026-04-02T07:16:42Z</time></trkpt><trkpt lat="44.98139624319995" lon="-0.6008629794308948"><ele>4.0</ele><time>2026-04-02T07:16:47Z</time></trkpt><trkpt lat="44.98133272988755" lon="-0.6008013334276485"><ele>4.0</ele><time>2026-04-02T07:16:53Z</time></trkpt><trkpt lat="44.98128930574959" lon="-0.6007228831542494"><ele>3.9999999999999996</ele><time>2026-04-02T07:16:58Z</time></trkpt><trkpt lat="44.981265068201076" lon="-0.6006221542739358"><ele>4.0</ele><time>2026-04-02T07:17:06Z</time></trkpt><trkpt lat="44.981255655465" lon="-0.6005313076370407"><ele>4.0</ele><time>2026-04-02T07:17:10Z</time></trkpt><trkpt lat="44.9812441499625" lon="-0.6004432653861589"><ele>3.9999999999999996</ele><time>2026-04-02T07:17:14Z</time></trkpt><trkpt lat="44.98124250014612" lon="-0.6003368893819848"><ele>4.0</ele><time>2026-04-02T07:17:19Z</time></trkpt><trkpt lat="44.981241684569" lon="-0.6002276615985249"><ele>4.0</ele><time>2026-04-02T07:17:24Z</time></trkpt><trkpt lat="44.981260098626976" lon="-0.60012078680008"><ele>4.142857142857142</ele><time>2026-04-02T07:17:29Z</time></trkpt><trkpt lat="44.98128621339912" lon="-0.6000277481109217"><ele>4.285714285714286</ele><time>2026-04-02T07:17:34Z</time></trkpt><trkpt lat="44.98132306640927" lon="-0.5999337760770822"><ele>4.428571428571429</ele><time>2026-04-02T07:17:39Z</time></trkpt><trkpt lat="44.981358414982026" lon="-0.5998393526391346"><ele>4.571428571428571</ele><time>2026-04-02T07:17:44Z</time></trkpt><trkpt lat="44.98139112890293" lon="-0.5997473248739871"><ele>4.714285714285714</ele><time>2026-04-02T07:17:49Z</time></trkpt><trkpt lat="44.981432273959136" lon="-0.5996632555081742"><ele>4.857142857142857</ele><time>2026-04-02T07:17:54Z</time></trkpt><trkpt lat="44.98147373792285" lon="-0.5995850275779352"><ele>5.0</ele><time>2026-04-02T07:17:59Z</time></trkpt><trkpt lat="44.98151959420858" lon="-0.5995105571719087"><ele>4.714285714285714</ele><time>2026-04-02T07:18:04Z</time></trkpt><trkpt lat="44.98152325681426" lon="-0.5994139150648529"><ele>4.428571428571429</ele><time>2026-04-02T07:18:09Z</time></trkpt><trkpt lat="44.98150987689041" lon="-0.5993148205354064"><ele>4.142857142857142</ele><time>2026-04-02T07:18:15Z</time></trkpt><trkpt lat="44.98152781578761" lon="-0.5992269301540286"><ele>3.8571428571428568</ele><time>2026-04-02T07:18:20Z</time></trkpt><trkpt lat="44.981560810215285" lon="-0.5991459877852211"><ele>3.571428571428571</ele><time>2026-04-02T07:18:26Z</time></trkpt><trkpt lat="44.981580789311394" lon="-0.5990532758783087"><ele>3.2857142857142856</ele><time>2026-04-02T07:19:01Z</time></trkpt><trkpt lat="44.98158784121904" lon="-0.5989628868923175"><ele>3.0</ele><time>2026-04-02T07:19:08Z</time></trkpt><trkpt lat="44.98160920364224" lon="-0.5988686946674345"><ele>2.9999999999999996</ele><time>2026-04-02T07:19:14Z</time></trkpt><trkpt lat="44.981621660009374" lon="-0.598763119033134"><ele>3.0</ele><time>2026-04-02T07:19:21Z</time></trkpt><trkpt lat="44.9816300612528" lon="-0.5986585677965611"><ele>3.0</ele><time>2026-04-02T07:19:28Z</time></trkpt><trkpt lat="44.98164384583271" lon="-0.5985710720406936"><ele>3.0</ele><time>2026-04-02T07:19:34Z</time></trkpt><trkpt lat="44.98165871962255" lon="-0.5984788737712782"><ele>3.0</ele><time>2026-04-02T07:19:41Z</time></trkpt><trkpt lat="44.98167051534766" lon="-0.5983897474002844"><ele>2.9999999999999996</ele><time>2026-04-02T07:19:47Z</time></trkpt><trkpt lat="44.981686235785595" lon="-0.5982902511520807"><ele>3.0</ele><time>2026-04-02T07:19:54Z</time></trkpt><trkpt lat="44.9817080093893" lon="-0.5982039571139786"><ele>3.1428571428571423</ele><time>2026-04-02T07:20:00Z</time></trkpt><trkpt lat="44.98172683392084" lon="-0.5981087289200053"><ele>3.2857142857142856</ele><time>2026-04-02T07:20:06Z</time></trkpt><trkpt lat="44.98175255850084" lon="-0.5980139962162043"><ele>3.4285714285714284</ele><time>2026-04-02T07:20:12Z</time></trkpt><trkpt lat="44.981774851000694" lon="-0.5979176110950972"><ele>3.571428571428571</ele><time>2026-04-02T07:20:18Z</time></trkpt><trkpt lat="44.98179711576467" lon="-0.5978335396482369"><ele>3.714285714285714</ele><time>2026-04-02T07:20:24Z</time></trkpt><trkpt lat="44.98181906688651" lon="-0.5977444860052248"><ele>3.8571428571428568</ele><time>2026-04-02T07:20:29Z</time></trkpt><trkpt lat="44.98183680163909" lon="-0.5976448931576197"><ele>4.0</ele><time>2026-04-02T07:20:35Z</time></trkpt><trkpt lat="44.981858709235766" lon="-0.5975470798215539"><ele>4.142857142857142</ele><time>2026-04-02T07:20:41Z</time></trkpt><trkpt lat="44.981874280016385" lon="-0.5974399537447739"><ele>4.285714285714286</ele><time>2026-04-02T07:20:48Z</time></trkpt><trkpt lat="44.98189846457027" lon="-0.5973477831787554"><ele>4.428571428571429</ele><time>2026-04-02T07:20:54Z</time></trkpt><trkpt lat="44.98191604623608" lon="-0.5972613876634847"><ele>4.571428571428571</ele><time>2026-04-02T07:20:59Z</time></trkpt><trkpt lat="44.98193930597629" lon="-0.5971747398208563"><ele>4.714285714285714</ele><time>2026-04-02T07:21:05Z</time></trkpt><trkpt lat="44.98195879868483" lon="-0.5970895665483231"><ele>4.857142857142857</ele><time>2026-04-02T07:21:10Z</time></trkpt><trkpt lat="44.981984343886474" lon="-0.5969933806083654"><ele>5.0</ele><time>2026-04-02T07:21:16Z</time></trkpt><trkpt lat="44.98200703765665" lon="-0.596889409710007"><ele>5.285714285714286</ele><time>2026-04-02T07:21:22Z</time></trkpt><trkpt lat="44.98202730248253" lon="-0.596796826562186"><ele>5.571428571428571</ele><time>2026-04-02T07:21:28Z</time></trkpt><trkpt lat="44.98204313916285" lon="-0.5967089182179673"><ele>5.857142857142858</ele><time>2026-04-02T07:21:34Z</time></trkpt><trkpt lat="44.982063581676194" lon="-0.5966119449157136"><ele>6.142857142857142</ele><time>2026-04-02T07:21:39Z</time></trkpt><trkpt lat="44.9820812410062" lon="-0.596523751482002"><ele>6.428571428571429</ele><time>2026-04-02T07:21:44Z</time></trkpt><trkpt lat="44.98210060858334" lon="-0.5964264817163291"><ele>6.714285714285714</ele><time>2026-04-02T07:21:50Z</time></trkpt><trkpt lat="44.98212301241998" lon="-0.5963233952259558"><ele>7.0</ele><time>2026-04-02T07:21:56Z</time></trkpt><trkpt lat="44.98214638117705" lon="-0.5962310626106959"><ele>6.857142857142857</ele><time>2026-04-02T07:22:02Z</time></trkpt><trkpt lat="44.982166527661974" lon="-0.5961460994512953"><ele>6.714285714285714</ele><time>2026-04-02T07:22:07Z</time></trkpt><trkpt lat="44.98218293852725" lon="-0.5960564767517251"><ele>6.571428571428571</ele><time>2026-04-02T07:22:12Z</time></trkpt><trkpt lat="44.98220397487787" lon="-0.5959591320017306"><ele>6.428571428571429</ele><time>2026-04-02T07:22:18Z</time></trkpt><trkpt lat="44.9822282361652" lon="-0.5958714170864403"><ele>6.285714285714286</ele><time>2026-04-02T07:22:23Z</time></trkpt><trkpt lat="44.982264551895355" lon="-0.5957814044915076"><ele>6.142857142857142</ele><time>2026-04-02T07:22:29Z</time></trkpt><trkpt lat="44.98230788239295" lon="-0.5957086915370612"><ele>6.0</ele><time>2026-04-02T07:22:35Z</time></trkpt><trkpt lat="44.98236245733863" lon="-0.5956449464805195"><ele>5.999999999999999</ele><time>2026-04-02T07:22:41Z</time></trkpt><trkpt lat="44.98240693735951" lon="-0.5955677088017618"><ele>6.0</ele><time>2026-04-02T07:22:47Z</time></trkpt><trkpt lat="44.9824484983455" lon="-0.5955007689872417"><ele>6.0</ele><time>2026-04-02T07:22:53Z</time></trkpt><trkpt lat="44.982491398394004" lon="-0.5954341435379319"><ele>6.0</ele><time>2026-04-02T07:22:59Z</time></trkpt><trkpt lat="44.982530629906215" lon="-0.5953542118158692"><ele>6.0</ele><time>2026-04-02T07:23:05Z</time></trkpt><trkpt lat="44.98257913262246" lon="-0.5952793760922717"><ele>5.999999999999999</ele><time>2026-04-02T07:23:11Z</time></trkpt><trkpt lat="44.98262291429469" lon="-0.5951954845198922"><ele>6.0</ele><time>2026-04-02T07:23:17Z</time></trkpt><trkpt lat="44.98265532229141" lon="-0.5951166593805542"><ele>5.571428571428571</ele><time>2026-04-02T07:23:24Z</time></trkpt><trkpt lat="44.98269997902614" lon="-0.5950422910640124"><ele>5.142857142857142</ele><time>2026-04-02T07:23:31Z</time></trkpt><trkpt lat="44.98274069729065" lon="-0.594972328760181"><ele>4.7142857142857135</ele><time>2026-04-02T07:23:37Z</time></trkpt><trkpt lat="44.98277409185019" lon="-0.5948907293882483"><ele>4.285714285714286</ele><time>2026-04-02T07:23:43Z</time></trkpt><trkpt lat="44.98280290572557" lon="-0.5947981819110942"><ele>3.8571428571428568</ele><time>2026-04-02T07:23:48Z</time></trkpt><trkpt lat="44.98281141637371" lon="-0.5947015605071364"><ele>3.4285714285714284</ele><time>2026-04-02T07:23:54Z</time></trkpt><trkpt lat="44.9828348077782" lon="-0.594611334305877"><ele>3.0</ele><time>2026-04-02T07:24:01Z</time></trkpt><trkpt lat="44.98286569725446" lon="-0.5945165727179282"><ele>2.9999999999999996</ele><time>2026-04-02T07:24:08Z</time></trkpt><trkpt lat="44.98289746663602" lon="-0.5944351142891163"><ele>3.0</ele><time>2026-04-02T07:24:14Z</time></trkpt><trkpt lat="44.9829134037787" lon="-0.5943391481950525"><ele>3.0</ele><time>2026-04-02T07:24:20Z</time></trkpt><trkpt lat="44.98290103666891" lon="-0.5942507319796301"><ele>3.0</ele><time>2026-04-02T07:24:29Z</time></trkpt><trkpt lat="44.98285967178869" lon="-0.5941649023862353"><ele>3.0</ele><time>2026-04-02T07:24:36Z</time></trkpt><trkpt lat="44.982803440116776" lon="-0.5941111931086368"><ele>2.9999999999999996</ele><time>2026-04-02T07:24:43Z</time></trkpt><trkpt lat="44.98275358987725" lon="-0.5940509979188138"><ele>3.0</ele><time>2026-04-02T07:24:49Z</time></trkpt><trkpt lat="44.982698013209294" lon="-0.5939928071536809"><ele>2.9999999999999996</ele><time>2026-04-02T07:24:56Z</time></trkpt><trkpt lat="44.982640241269" lon="-0.5939468829316887"><ele>3.0</ele><time>2026-04-02T07:25:03Z</time></trkpt><trkpt lat="44.982579214037294" lon="-0.5938904630883617"><ele>3.0</ele><time>2026-04-02T07:25:09Z</time></trkpt><trkpt lat="44.98252296481431" lon="-0.5938375877612464"><ele>3.0</ele><time>2026-04-02T07:25:15Z</time></trkpt><trkpt lat="44.9824639217198" lon="-0.593778529862256"><ele>3.0</ele><time>2026-04-02T07:25:22Z</time></trkpt><trkpt lat="44.982416663951405" lon="-0.5937194869862877"><ele>2.9999999999999996</ele><time>2026-04-02T07:25:29Z</time></trkpt><trkpt lat="44.98235885614247" lon="-0.5936602684904462"><ele>3.0</ele><time>2026-04-02T07:25:37Z</time></trkpt><trkpt lat="44.98229938142641" lon="-0.5935997481469445"><ele>3.1428571428571423</ele><time>2026-04-02T07:25:44Z</time></trkpt><trkpt lat="44.98225038091486" lon="-0.5935234911326643"><ele>3.2857142857142856</ele><time>2026-04-02T07:25:52Z</time></trkpt><trkpt lat="44.982221704040015" lon="-0.5934438784317513"><ele>3.4285714285714284</ele><time>2026-04-02T07:25:59Z</time></trkpt><trkpt lat="44.98222436582884" lon="-0.5933534327397563"><ele>3.571428571428571</ele><time>2026-04-02T07:26:07Z</time></trkpt><trkpt lat="44.982254055525125" lon="-0.5932630876848202"><ele>3.714285714285714</ele><time>2026-04-02T07:26:13Z</time></trkpt><trkpt lat="44.982281457790464" lon="-0.5931684281559426"><ele>3.8571428571428568</ele><time>2026-04-02T07:26:19Z</time></trkpt><trkpt lat="44.982315084488526" lon="-0.5930910153391844"><ele>4.0</ele><time>2026-04-02T07:26:25Z</time></trkpt><trkpt lat="44.98235959637792" lon="-0.5930012866952625"><ele>4.0</ele><time>2026-04-02T07:26:31Z</time></trkpt><trkpt lat="44.982387035983244" lon="-0.5929180257785471"><ele>3.9999999999999996</ele><time>2026-04-02T07:26:36Z</time></trkpt><trkpt lat="44.98242924016125" lon="-0.5928376127612579"><ele>4.0</ele><time>2026-04-02T07:26:42Z</time></trkpt><trkpt lat="44.982464225051125" lon="-0.5927568256992162"><ele>4.0</ele><time>2026-04-02T07:26:47Z</time></trkpt><trkpt lat="44.982505845873504" lon="-0.5926756299499949"><ele>3.9999999999999996</ele><time>2026-04-02T07:26:53Z</time></trkpt><trkpt lat="44.98254863392502" lon="-0.5926083757938582"><ele>4.0</ele><time>2026-04-02T07:27:00Z</time></trkpt><trkpt lat="44.98258811840082" lon="-0.592532378388073"><ele>4.0</ele><time>2026-04-02T07:27:05Z</time></trkpt><trkpt lat="44.982626880660185" lon="-0.5924511065807218"><ele>3.9999999999999996</ele><time>2026-04-02T07:27:11Z</time></trkpt><trkpt lat="44.982653578839475" lon="-0.5923586027993322"><ele>4.0</ele><time>2026-04-02T07:27:18Z</time></trkpt><trkpt lat="44.982672247593165" lon="-0.5922146808080991"><ele>4.0</ele><time>2026-04-02T07:28:19Z</time></trkpt><trkpt lat="44.982721284322686" lon="-0.5921439029144209"><ele>4.0</ele><time>2026-04-02T07:28:38Z</time></trkpt><trkpt lat="44.982746989020924" lon="-0.5920158806370105"><ele>3.9999999999999996</ele><time>2026-04-02T07:29:13Z</time></trkpt><trkpt lat="44.982739633501645" lon="-0.5919223694177794"><ele>4.0</ele><time>2026-04-02T07:29:22Z</time></trkpt><trkpt lat="44.98270404551038" lon="-0.5918284526072235"><ele>4.0</ele><time>2026-04-02T07:29:29Z</time></trkpt><trkpt lat="44.982672910140394" lon="-0.5917444311066543"><ele>3.9999999999999996</ele><time>2026-04-02T07:29:37Z</time></trkpt><trkpt lat="44.982624843778325" lon="-0.5916651667732021"><ele>4.0</ele><time>2026-04-02T07:29:45Z</time></trkpt><trkpt lat="44.98257540416022" lon="-0.5915959812780905"><ele>4.0</ele><time>2026-04-02T07:29:50Z</time></trkpt><trkpt lat="44.982527168307094" lon="-0.591533166408472"><ele>3.9999999999999996</ele><time>2026-04-02T07:29:57Z</time></trkpt><trkpt lat="44.98247206139081" lon="-0.5914741804588391"><ele>4.0</ele><time>2026-04-02T07:30:05Z</time></trkpt><trkpt lat="44.982421001498516" lon="-0.5914117154153576"><ele>4.0</ele><time>2026-04-02T07:30:13Z</time></trkpt><trkpt lat="44.98237174959131" lon="-0.5913525800538417"><ele>3.8571428571428568</ele><time>2026-04-02T07:30:21Z</time></trkpt><trkpt lat="44.98232486346932" lon="-0.5912891752794291"><ele>3.714285714285714</ele><time>2026-04-02T07:30:31Z</time></trkpt><trkpt lat="44.982281886399726" lon="-0.591219704531071"><ele>3.571428571428571</ele><time>2026-04-02T07:30:37Z</time></trkpt><trkpt lat="44.98222623399877" lon="-0.5911486089021317"><ele>3.4285714285714284</ele><time>2026-04-02T07:30:43Z</time></trkpt><trkpt lat="44.98217262312022" lon="-0.5910798883322864"><ele>3.2857142857142856</ele><time>2026-04-02T07:30:50Z</time></trkpt><trkpt lat="44.98213027338702" lon="-0.5910019489667973"><ele>3.1428571428571423</ele><time>2026-04-02T07:30:56Z</time></trkpt><trkpt lat="44.982070486093136" lon="-0.5909468668619318"><ele>3.0</ele><time>2026-04-02T07:31:02Z</time></trkpt><trkpt lat="44.98202426486964" lon="-0.5908861826218541"><ele>2.9999999999999996</ele><time>2026-04-02T07:31:08Z</time></trkpt><trkpt lat="44.981980364920105" lon="-0.5908064685484291"><ele>3.0</ele><time>2026-04-02T07:31:14Z</time></trkpt><trkpt lat="44.98193409430264" lon="-0.5907456570702834"><ele>3.0</ele><time>2026-04-02T07:31:22Z</time></trkpt><trkpt lat="44.98187852621053" lon="-0.590699281427817"><ele>3.0</ele><time>2026-04-02T07:31:28Z</time></trkpt><trkpt lat="44.98182069124536" lon="-0.5906442613476403"><ele>3.0</ele><time>2026-04-02T07:31:39Z</time></trkpt><trkpt lat="44.98182887863599" lon="-0.5905558690300323"><ele>2.9999999999999996</ele><time>2026-04-02T07:31:53Z</time></trkpt><trkpt lat="44.98182713150507" lon="-0.5904661766691346"><ele>3.0</ele><time>2026-04-02T07:32:01Z</time></trkpt><trkpt lat="44.981828972544704" lon="-0.5903753001085634"><ele>2.9999999999999996</ele><time>2026-04-02T07:32:07Z</time></trkpt><trkpt lat="44.98178181993356" lon="-0.5902803333574184"><ele>3.0</ele><time>2026-04-02T07:32:48Z</time></trkpt><trkpt lat="44.98171786097071" lon="-0.5902348266448537"><ele>3.0</ele><time>2026-04-02T07:32:55Z</time></trkpt><trkpt lat="44.98166247774512" lon="-0.5901897293016745"><ele>3.0</ele><time>2026-04-02T07:33:02Z</time></trkpt><trkpt lat="44.981598459661605" lon="-0.5901714765178144"><ele>3.0</ele><time>2026-04-02T07:33:13Z</time></trkpt><trkpt lat="44.98154117339643" lon="-0.5901288635546641"><ele>2.9999999999999996</ele><time>2026-04-02T07:33:20Z</time></trkpt><trkpt lat="44.98147716876858" lon="-0.5900832997434478"><ele>3.0</ele><time>2026-04-02T07:33:27Z</time></trkpt><trkpt lat="44.9814139804152" lon="-0.5900506110334268"><ele>2.9999999999999996</ele><time>2026-04-02T07:33:33Z</time></trkpt><trkpt lat="44.981350448835755" lon="-0.5900051316455006"><ele>3.0</ele><time>2026-04-02T07:33:39Z</time></trkpt><trkpt lat="44.98128548216737" lon="-0.589977573656842"><ele>3.0</ele><time>2026-04-02T07:33:46Z</time></trkpt><trkpt lat="44.98122400174758" lon="-0.5899508151531517"><ele>3.0</ele><time>2026-04-02T07:33:52Z</time></trkpt><trkpt lat="44.981155484751774" lon="-0.5899256562652057"><ele>3.0</ele><time>2026-04-02T07:33:59Z</time></trkpt><trkpt lat="44.981082538751345" lon="-0.589896198008518"><ele>2.9999999999999996</ele><time>2026-04-02T07:34:05Z</time></trkpt><trkpt lat="44.98101590031087" lon="-0.5898492859337556"><ele>3.0</ele><time>2026-04-02T07:34:11Z</time></trkpt><trkpt lat="44.9809681872894" lon="-0.5897912039611563"><ele>2.9999999999999996</ele><time>2026-04-02T07:34:17Z</time></trkpt><trkpt lat="44.98093594582251" lon="-0.5897112599209077"><ele>3.0</ele><time>2026-04-02T07:34:22Z</time></trkpt><trkpt lat="44.980898722900235" lon="-0.5896313688924579"><ele>3.0</ele><time>2026-04-02T07:34:27Z</time></trkpt><trkpt lat="44.98083772873103" lon="-0.5895942368273347"><ele>3.0</ele><time>2026-04-02T07:34:33Z</time></trkpt><trkpt lat="44.98079098649838" lon="-0.5896870269006612"><ele>3.0</ele><time>2026-04-02T07:35:06Z</time></trkpt><trkpt lat="44.98072970128522" lon="-0.5896351156046237"><ele>2.9999999999999996</ele><time>2026-04-02T07:35:32Z</time></trkpt><trkpt lat="44.98076925745312" lon="-0.5897064544620703"><ele>3.0</ele><time>2026-04-02T07:36:25.003Z</time></trkpt><trkpt lat="44.9807743251127" lon="-0.5898011332442659"><ele>2.9999999999999996</ele><time>2026-04-02T07:36:43.004Z</time></trkpt><trkpt lat="44.98079157215138" lon="-0.5899007141992756"><ele>3.0</ele><time>2026-04-02T07:36:52.004Z</time></trkpt><trkpt lat="44.98078557790481" lon="-0.5899940293471109"><ele>3.0</ele><time>2026-04-02T07:37:00.004Z</time></trkpt><trkpt lat="44.98078637354709" lon="-0.5900941735247389"><ele>3.0</ele><time>2026-04-02T07:37:09.004Z</time></trkpt><trkpt lat="44.98077324696496" lon="-0.5901887465912189"><ele>3.0</ele><time>2026-04-02T07:37:15.004Z</time></trkpt><trkpt lat="44.98076832000658" lon="-0.5902829783410337"><ele>2.9999999999999996</ele><time>2026-04-02T07:37:24.004Z</time></trkpt><trkpt lat="44.98077617507517" lon="-0.5903740807810781"><ele>3.0</ele><time>2026-04-02T07:37:30.004Z</time></trkpt><trkpt lat="44.9807736344796" lon="-0.5904747093124975"><ele>2.9999999999999996</ele><time>2026-04-02T07:37:36.004Z</time></trkpt><trkpt lat="44.980757617000826" lon="-0.590376534933362"><ele>3.0</ele><time>2026-04-02T07:38:00.004Z</time></trkpt><trkpt lat="44.98076390378248" lon="-0.5902789240715053"><ele>3.0</ele><time>2026-04-02T07:38:07.004Z</time></trkpt><trkpt lat="44.980764719540254" lon="-0.5901810198105839"><ele>3.0</ele><time>2026-04-02T07:38:13.004Z</time></trkpt><trkpt lat="44.980774391407344" lon="-0.5900912049081894"><ele>3.0</ele><time>2026-04-02T07:38:25.004Z</time></trkpt><trkpt lat="44.98078150630112" lon="-0.5899957510274547"><ele>2.9999999999999996</ele><time>2026-04-02T07:38:30.004Z</time></trkpt><trkpt lat="44.98078751805236" lon="-0.5898987761647579"><ele>3.0</ele><time>2026-04-02T07:38:39.004Z</time></trkpt><trkpt lat="44.980783661960324" lon="-0.5897954045163062"><ele>2.9999999999999996</ele><time>2026-04-02T07:38:45.004Z</time></trkpt><trkpt lat="44.980778036314284" lon="-0.5896975540533242"><ele>3.0</ele><time>2026-04-02T07:38:51.004Z</time></trkpt><trkpt lat="44.98083288322965" lon="-0.5896401346742702"><ele>3.0</ele><time>2026-04-02T07:39:02.003Z</time></trkpt><trkpt lat="44.9808955246192" lon="-0.5896310063301681"><ele>3.0</ele><time>2026-04-02T07:39:09.003Z</time></trkpt><trkpt lat="44.98093750108058" lon="-0.5896991516509391"><ele>3.0</ele><time>2026-04-02T07:39:14.003Z</time></trkpt><trkpt lat="44.98098473605023" lon="-0.58976180076789"><ele>2.9999999999999996</ele><time>2026-04-02T07:39:20.003Z</time></trkpt><trkpt lat="44.98102912048673" lon="-0.589825737452318"><ele>3.0</ele><time>2026-04-02T07:39:27.003Z</time></trkpt><trkpt lat="44.981083270305014" lon="-0.5898820900611027"><ele>2.9999999999999996</ele><time>2026-04-02T07:39:33.003Z</time></trkpt><trkpt lat="44.98114546456337" lon="-0.5899081454774282"><ele>3.0</ele><time>2026-04-02T07:39:39.003Z</time></trkpt><trkpt lat="44.981212140640125" lon="-0.5899267142640755"><ele>3.0</ele><time>2026-04-02T07:39:45.003Z</time></trkpt><trkpt lat="44.981281212257" lon="-0.5899443031169774"><ele>3.0</ele><time>2026-04-02T07:39:51.003Z</time></trkpt><trkpt lat="44.9813535457979" lon="-0.5899547734441812"><ele>3.0</ele><time>2026-04-02T07:39:57.003Z</time></trkpt><trkpt lat="44.98141249843302" lon="-0.5899864309855241"><ele>2.9999999999999996</ele><time>2026-04-02T07:40:02.003Z</time></trkpt><trkpt lat="44.98147475045712" lon="-0.5900275402823644"><ele>3.0</ele><time>2026-04-02T07:40:08.003Z</time></trkpt><trkpt lat="44.98153536591414" lon="-0.5900786649740177"><ele>2.9999999999999996</ele><time>2026-04-02T07:40:15.003Z</time></trkpt><trkpt lat="44.981602124573016" lon="-0.5901101303463422"><ele>3.0</ele><time>2026-04-02T07:40:21.003Z</time></trkpt><trkpt lat="44.98165948224735" lon="-0.5901513181265734"><ele>3.0</ele><time>2026-04-02T07:40:27.003Z</time></trkpt><trkpt lat="44.981721465856644" lon="-0.5901982372219213"><ele>3.0</ele><time>2026-04-02T07:40:33.003Z</time></trkpt><trkpt lat="44.981777052032655" lon="-0.5902487751353236"><ele>3.0</ele><time>2026-04-02T07:40:41.003Z</time></trkpt><trkpt lat="44.98184682750743" lon="-0.5902925222421057"><ele>2.9999999999999996</ele><time>2026-04-02T07:40:50.004Z</time></trkpt><trkpt lat="44.98186414958593" lon="-0.5903924580675396"><ele>3.0</ele><time>2026-04-02T07:40:56.005Z</time></trkpt><trkpt lat="44.98184626458165" lon="-0.5904850484353524"><ele>2.9999999999999996</ele><time>2026-04-02T07:41:02.005Z</time></trkpt><trkpt lat="44.98183493820039" lon="-0.5905784466475108"><ele>3.0</ele><time>2026-04-02T07:41:08.005Z</time></trkpt><trkpt lat="44.981860776353464" lon="-0.5906633250023751"><ele>3.0</ele><time>2026-04-02T07:41:14.005Z</time></trkpt><trkpt lat="44.98191709182591" lon="-0.5907159098972912"><ele>3.0</ele><time>2026-04-02T07:41:25.005Z</time></trkpt><trkpt lat="44.98196572532496" lon="-0.5907922485061511"><ele>3.0</ele><time>2026-04-02T07:41:31.005Z</time></trkpt><trkpt lat="44.9820128190392" lon="-0.5908615247212476"><ele>2.9999999999999996</ele><time>2026-04-02T07:41:38.005Z</time></trkpt><trkpt lat="44.98206291303672" lon="-0.5909324975060081"><ele>3.0</ele><time>2026-04-02T07:41:46.005Z</time></trkpt><trkpt lat="44.982120806763724" lon="-0.5909976379446281"><ele>2.9999999999999996</ele><time>2026-04-02T07:41:52.005Z</time></trkpt><trkpt lat="44.9821634052305" lon="-0.5910706652470409"><ele>3.0</ele><time>2026-04-02T07:41:57.005Z</time></trkpt><trkpt lat="44.982210950301166" lon="-0.5911368581774503"><ele>3.0</ele><time>2026-04-02T07:42:03.005Z</time></trkpt><trkpt lat="44.982257162021604" lon="-0.5911993370724905"><ele>3.0</ele><time>2026-04-02T07:42:09.005Z</time></trkpt><trkpt lat="44.982312132414606" lon="-0.5912614901019544"><ele>3.0</ele><time>2026-04-02T07:42:15.005Z</time></trkpt><trkpt lat="44.982352068044925" lon="-0.5913387182588973"><ele>2.9999999999999996</ele><time>2026-04-02T07:42:26.005Z</time></trkpt><trkpt lat="44.982412182648325" lon="-0.591388373843549"><ele>3.0</ele><time>2026-04-02T07:42:31.005Z</time></trkpt><trkpt lat="44.98246549070641" lon="-0.5914606536643493"><ele>3.1428571428571423</ele><time>2026-04-02T07:42:38.005Z</time></trkpt><trkpt lat="44.98250887446255" lon="-0.5915274565473633"><ele>3.2857142857142856</ele><time>2026-04-02T07:42:43.005Z</time></trkpt><trkpt lat="44.98256794865081" lon="-0.5915942232190591"><ele>3.4285714285714284</ele><time>2026-04-02T07:42:50.005Z</time></trkpt><trkpt lat="44.982621650900704" lon="-0.5916657878208941"><ele>3.571428571428571</ele><time>2026-04-02T07:42:56.004Z</time></trkpt><trkpt lat="44.98265939232263" lon="-0.5917426847473354"><ele>3.714285714285714</ele><time>2026-04-02T07:43:02.005Z</time></trkpt><trkpt lat="44.9826982911049" lon="-0.5918136644805994"><ele>3.8571428571428568</ele><time>2026-04-02T07:43:07.004Z</time></trkpt><trkpt lat="44.982734240590446" lon="-0.5918948415093855"><ele>4.0</ele><time>2026-04-02T07:43:14.005Z</time></trkpt><trkpt lat="44.982758956021264" lon="-0.5919786900776148"><ele>3.8571428571428568</ele><time>2026-04-02T07:43:32.005Z</time></trkpt><trkpt lat="44.9827686909491" lon="-0.5920774250903131"><ele>3.714285714285714</ele><time>2026-04-02T07:43:59.005Z</time></trkpt><trkpt lat="44.98275009935708" lon="-0.5921651133681897"><ele>3.571428571428571</ele><time>2026-04-02T07:44:08.005Z</time></trkpt><trkpt lat="44.98269122418031" lon="-0.5922643720455718"><ele>3.4285714285714284</ele><time>2026-04-02T07:44:31.005Z</time></trkpt><trkpt lat="44.982680149014875" lon="-0.5923568209178501"><ele>3.2857142857142856</ele><time>2026-04-02T07:44:52.005Z</time></trkpt><trkpt lat="44.9826389445654" lon="-0.5924432904912886"><ele>3.1428571428571423</ele><time>2026-04-02T07:45:01.005Z</time></trkpt><trkpt lat="44.98259608508702" lon="-0.5925273670858667"><ele>3.0</ele><time>2026-04-02T07:45:09.005Z</time></trkpt><trkpt lat="44.98255439376754" lon="-0.5926073773301966"><ele>3.1428571428571423</ele><time>2026-04-02T07:45:16.005Z</time></trkpt><trkpt lat="44.982506518962744" lon="-0.592669377015678"><ele>3.2857142857142856</ele><time>2026-04-02T07:45:20.005Z</time></trkpt><trkpt lat="44.9824626496753" lon="-0.5927413702035167"><ele>3.4285714285714284</ele><time>2026-04-02T07:45:25.005Z</time></trkpt><trkpt lat="44.98244090397682" lon="-0.5928287828881431"><ele>3.571428571428571</ele><time>2026-04-02T07:45:29.005Z</time></trkpt><trkpt lat="44.982411220745846" lon="-0.5929098394803302"><ele>3.714285714285714</ele><time>2026-04-02T07:45:34.005Z</time></trkpt><trkpt lat="44.98237319286555" lon="-0.5929873690493566"><ele>3.8571428571428568</ele><time>2026-04-02T07:45:38.005Z</time></trkpt><trkpt lat="44.98234155329269" lon="-0.5930761729068176"><ele>4.0</ele><time>2026-04-02T07:45:44.005Z</time></trkpt><trkpt lat="44.98230550624045" lon="-0.5931586209248295"><ele>4.0</ele><time>2026-04-02T07:45:50.005Z</time></trkpt><trkpt lat="44.98227189832" lon="-0.5932377635273253"><ele>3.9999999999999996</ele><time>2026-04-02T07:45:56.005Z</time></trkpt><trkpt lat="44.9822412865086" lon="-0.5933225566511509"><ele>4.0</ele><time>2026-04-02T07:46:01.005Z</time></trkpt><trkpt lat="44.982225443347915" lon="-0.593432626345778"><ele>4.0</ele><time>2026-04-02T07:46:08.005Z</time></trkpt><trkpt lat="44.98225585085518" lon="-0.5935263378547826"><ele>3.9999999999999996</ele><time>2026-04-02T07:46:15.005Z</time></trkpt><trkpt lat="44.98230385974443" lon="-0.5935907438790817"><ele>4.0</ele><time>2026-04-02T07:46:22.005Z</time></trkpt><trkpt lat="44.98235934000925" lon="-0.5936419431309101"><ele>4.0</ele><time>2026-04-02T07:46:27.005Z</time></trkpt><trkpt lat="44.98241971933676" lon="-0.5937000856166734"><ele>3.8571428571428568</ele><time>2026-04-02T07:46:33.005Z</time></trkpt><trkpt lat="44.982485768423366" lon="-0.5937488986958182"><ele>3.714285714285714</ele><time>2026-04-02T07:46:40.005Z</time></trkpt><trkpt lat="44.982542382918524" lon="-0.5938177138820012"><ele>3.571428571428571</ele><time>2026-04-02T07:46:46.005Z</time></trkpt><trkpt lat="44.98258928303411" lon="-0.5938886788691369"><ele>3.4285714285714284</ele><time>2026-04-02T07:46:51.005Z</time></trkpt><trkpt lat="44.98264746586097" lon="-0.5939373660025098"><ele>3.2857142857142856</ele><time>2026-04-02T07:46:56.005Z</time></trkpt><trkpt lat="44.982702961238324" lon="-0.5939901341784882"><ele>3.1428571428571423</ele><time>2026-04-02T07:47:02.005Z</time></trkpt><trkpt lat="44.98277901652146" lon="-0.5940686128307371"><ele>3.0</ele><time>2026-04-02T07:47:11.006Z</time></trkpt><trkpt lat="44.98284118505648" lon="-0.5941244143401299"><ele>2.9999999999999996</ele><time>2026-04-02T07:47:16.005Z</time></trkpt><trkpt lat="44.982889415057855" lon="-0.59420638638935"><ele>3.0</ele><time>2026-04-02T07:47:21.006Z</time></trkpt><trkpt lat="44.98291330881831" lon="-0.5942929704506843"><ele>3.0</ele><time>2026-04-02T07:47:27.006Z</time></trkpt><trkpt lat="44.98291079285766" lon="-0.5943853427763787"><ele>3.0</ele><time>2026-04-02T07:47:33.006Z</time></trkpt><trkpt lat="44.98289042802449" lon="-0.5944760647619748"><ele>3.0</ele><time>2026-04-02T07:47:40.006Z</time></trkpt><trkpt lat="44.982855566740504" lon="-0.5945579902124614"><ele>2.9999999999999996</ele><time>2026-04-02T07:47:46.006Z</time></trkpt><trkpt lat="44.98282961044989" lon="-0.5946531173931591"><ele>3.0</ele><time>2026-04-02T07:47:52.006Z</time></trkpt><trkpt lat="44.98281272526024" lon="-0.5947503621167579"><ele>2.9999999999999996</ele><time>2026-04-02T07:47:58.006Z</time></trkpt><trkpt lat="44.98279799687065" lon="-0.5948369124287284"><ele>3.0</ele><time>2026-04-02T07:48:03.006Z</time></trkpt><trkpt lat="44.982769529937514" lon="-0.5949283938967471"><ele>3.0</ele><time>2026-04-02T07:48:09.006Z</time></trkpt><trkpt lat="44.98272531064942" lon="-0.5950152773804995"><ele>3.0</ele><time>2026-04-02T07:48:15.006Z</time></trkpt><trkpt lat="44.98268995240263" lon="-0.5950991106237349"><ele>3.0</ele><time>2026-04-02T07:48:21.006Z</time></trkpt><trkpt lat="44.982649919364704" lon="-0.5951805582154682"><ele>2.9999999999999996</ele><time>2026-04-02T07:48:26.006Z</time></trkpt><trkpt lat="44.98260652904322" lon="-0.5952570722273011"><ele>3.0</ele><time>2026-04-02T07:48:31.006Z</time></trkpt><trkpt lat="44.98257040278635" lon="-0.5953368828940022"><ele>2.9999999999999996</ele><time>2026-04-02T07:48:36.006Z</time></trkpt><trkpt lat="44.98252272390015" lon="-0.5954198555342475"><ele>3.0</ele><time>2026-04-02T07:48:42.006Z</time></trkpt><trkpt lat="44.98246578680141" lon="-0.5954888581547875"><ele>3.0</ele><time>2026-04-02T07:48:48.006Z</time></trkpt><trkpt lat="44.98242175977054" lon="-0.5955537365351689"><ele>3.0</ele><time>2026-04-02T07:48:53.006Z</time></trkpt><trkpt lat="44.98237957037859" lon="-0.5956241877596354"><ele>3.0</ele><time>2026-04-02T07:48:58.006Z</time></trkpt><trkpt lat="44.98232941024225" lon="-0.5956989381073806"><ele>2.9999999999999996</ele><time>2026-04-02T07:49:03.006Z</time></trkpt><trkpt lat="44.98228509680825" lon="-0.5957747784101677"><ele>3.0</ele><time>2026-04-02T07:49:08.006Z</time></trkpt><trkpt lat="44.98224112467427" lon="-0.5958609113209234"><ele>3.4285714285714284</ele><time>2026-04-02T07:49:15.006Z</time></trkpt><trkpt lat="44.98221409356056" lon="-0.595951783698814"><ele>3.8571428571428568</ele><time>2026-04-02T07:49:21.006Z</time></trkpt><trkpt lat="44.98218845666173" lon="-0.5960489577423215"><ele>4.285714285714286</ele><time>2026-04-02T07:49:27.006Z</time></trkpt><trkpt lat="44.98217296242721" lon="-0.5961360930400375"><ele>4.7142857142857135</ele><time>2026-04-02T07:49:32.006Z</time></trkpt><trkpt lat="44.98214676456457" lon="-0.5962230615701981"><ele>5.142857142857142</ele><time>2026-04-02T07:49:38.006Z</time></trkpt><trkpt lat="44.98212531460473" lon="-0.5963132577442669"><ele>5.571428571428571</ele><time>2026-04-02T07:49:44.006Z</time></trkpt><trkpt lat="44.98210898268207" lon="-0.5964106920947746"><ele>6.0</ele><time>2026-04-02T07:49:50.006Z</time></trkpt><trkpt lat="44.98208877504297" lon="-0.59649998803762"><ele>6.142857142857142</ele><time>2026-04-02T07:49:56.006Z</time></trkpt><trkpt lat="44.982064928141554" lon="-0.596595974255778"><ele>6.285714285714286</ele><time>2026-04-02T07:50:02.006Z</time></trkpt><trkpt lat="44.982057249398466" lon="-0.5966922384033052"><ele>6.428571428571429</ele><time>2026-04-02T07:50:08.006Z</time></trkpt><trkpt lat="44.98204531307744" lon="-0.5967802862622882"><ele>6.571428571428571</ele><time>2026-04-02T07:50:15.006Z</time></trkpt><trkpt lat="44.98201793143001" lon="-0.5968826983754391"><ele>6.714285714285714</ele><time>2026-04-02T07:50:20.006Z</time></trkpt><trkpt lat="44.981999038639955" lon="-0.596981164429708"><ele>6.857142857142857</ele><time>2026-04-02T07:50:26.006Z</time></trkpt><trkpt lat="44.98198417842312" lon="-0.5970718397843247"><ele>7.0</ele><time>2026-04-02T07:50:31.006Z</time></trkpt><trkpt lat="44.98196117273461" lon="-0.5971681066449994"><ele>6.714285714285714</ele><time>2026-04-02T07:50:37.006Z</time></trkpt><trkpt lat="44.981936691891256" lon="-0.5972525363236973"><ele>6.428571428571429</ele><time>2026-04-02T07:50:42.006Z</time></trkpt><trkpt lat="44.98191243537281" lon="-0.5973368938942178"><ele>6.142857142857142</ele><time>2026-04-02T07:50:47.006Z</time></trkpt><trkpt lat="44.98189121908148" lon="-0.5974239188642376"><ele>5.857142857142858</ele><time>2026-04-02T07:50:52.006Z</time></trkpt><trkpt lat="44.981877399342565" lon="-0.5975251957951682"><ele>5.571428571428571</ele><time>2026-04-02T07:50:58.006Z</time></trkpt><trkpt lat="44.98186012200517" lon="-0.5976207461906196"><ele>5.285714285714286</ele><time>2026-04-02T07:51:05.006Z</time></trkpt><trkpt lat="44.98184087160588" lon="-0.5977197789572758"><ele>5.0</ele><time>2026-04-02T07:51:11.006Z</time></trkpt><trkpt lat="44.981816554685054" lon="-0.5978179249024925"><ele>4.857142857142857</ele><time>2026-04-02T07:51:17.006Z</time></trkpt><trkpt lat="44.981791576386115" lon="-0.5979127011796967"><ele>4.714285714285714</ele><time>2026-04-02T07:51:23.006Z</time></trkpt><trkpt lat="44.98176697072105" lon="-0.5980133834918637"><ele>4.571428571428571</ele><time>2026-04-02T07:51:29.006Z</time></trkpt><trkpt lat="44.981749047444346" lon="-0.5981138480431919"><ele>4.428571428571429</ele><time>2026-04-02T07:51:35.006Z</time></trkpt><trkpt lat="44.98173169073153" lon="-0.5982151831147418"><ele>4.285714285714286</ele><time>2026-04-02T07:51:42.006Z</time></trkpt><trkpt lat="44.981708850918764" lon="-0.59830523751446"><ele>4.142857142857142</ele><time>2026-04-02T07:51:47.006Z</time></trkpt><trkpt lat="44.98168704788551" lon="-0.5983974034187748"><ele>4.0</ele><time>2026-04-02T07:51:53.006Z</time></trkpt><trkpt lat="44.98166729921736" lon="-0.5985023007463263"><ele>3.8571428571428568</ele><time>2026-04-02T07:51:59.006Z</time></trkpt><trkpt lat="44.981649128934315" lon="-0.5986040568685337"><ele>3.714285714285714</ele><time>2026-04-02T07:52:04.006Z</time></trkpt><trkpt lat="44.98163593592281" lon="-0.5986972370476188"><ele>3.571428571428571</ele><time>2026-04-02T07:52:09.006Z</time></trkpt><trkpt lat="44.981628142411886" lon="-0.5987926918796251"><ele>3.4285714285714284</ele><time>2026-04-02T07:52:15.006Z</time></trkpt><trkpt lat="44.98160857563383" lon="-0.5988896955798122"><ele>3.2857142857142856</ele><time>2026-04-02T07:52:21.006Z</time></trkpt><trkpt lat="44.98158364186014" lon="-0.5989936068222006"><ele>3.1428571428571423</ele><time>2026-04-02T07:52:27.006Z</time></trkpt><trkpt lat="44.981562014927015" lon="-0.5990959204190693"><ele>3.0</ele><time>2026-04-02T07:52:33.006Z</time></trkpt><trkpt lat="44.981549510601795" lon="-0.599186492066031"><ele>2.9999999999999996</ele><time>2026-04-02T07:52:38.006Z</time></trkpt><trkpt lat="44.9815432975777" lon="-0.5992803124196547"><ele>3.0</ele><time>2026-04-02T07:52:43.006Z</time></trkpt><trkpt lat="44.98152658365519" lon="-0.5993704491182562"><ele>3.0</ele><time>2026-04-02T07:52:50.006Z</time></trkpt><trkpt lat="44.981520270765614" lon="-0.5994632857700413"><ele>3.0</ele><time>2026-04-02T07:52:56.006Z</time></trkpt><trkpt lat="44.981546704272134" lon="-0.5995647219829293"><ele>3.0</ele><time>2026-04-02T07:53:02.006Z</time></trkpt><trkpt lat="44.98161507851334" lon="-0.5995931692640066"><ele>2.9999999999999996</ele><time>2026-04-02T07:53:08.006Z</time></trkpt><trkpt lat="44.981689698463995" lon="-0.5996014270032205"><ele>3.0</ele><time>2026-04-02T07:53:15.006Z</time></trkpt><trkpt lat="44.98176274298468" lon="-0.5995987385342358"><ele>3.2857142857142856</ele><time>2026-04-02T07:53:22.006Z</time></trkpt><trkpt lat="44.98183215837344" lon="-0.5995857111460728"><ele>3.571428571428571</ele><time>2026-04-02T07:53:28.007Z</time></trkpt><trkpt lat="44.981902646973715" lon="-0.5995966809454524"><ele>3.8571428571428568</ele><time>2026-04-02T07:53:33.007Z</time></trkpt><trkpt lat="44.98198286539813" lon="-0.5995991687961966"><ele>4.142857142857142</ele><time>2026-04-02T07:53:38.007Z</time></trkpt><trkpt lat="44.98205315196019" lon="-0.599608257604676"><ele>4.428571428571429</ele><time>2026-04-02T07:53:42.007Z</time></trkpt><trkpt lat="44.98212451244046" lon="-0.5996101001658624"><ele>4.714285714285714</ele><time>2026-04-02T07:53:46.007Z</time></trkpt><trkpt lat="44.98219476878199" lon="-0.5996206381310584"><ele>5.0</ele><time>2026-04-02T07:53:50.007Z</time></trkpt><trkpt lat="44.98227048107869" lon="-0.5996247791508205"><ele>5.0</ele><time>2026-04-02T07:53:54.007Z</time></trkpt><trkpt lat="44.98234090823392" lon="-0.5996356517165747"><ele>5.0</ele><time>2026-04-02T07:53:58.007Z</time></trkpt><trkpt lat="44.98241638601902" lon="-0.5996505137075552"><ele>5.0</ele><time>2026-04-02T07:54:02.007Z</time></trkpt><trkpt lat="44.9824872741089" lon="-0.5996666614553909"><ele>5.0</ele><time>2026-04-02T07:54:06.007Z</time></trkpt><trkpt lat="44.98255929032117" lon="-0.5996879208264636"><ele>5.0</ele><time>2026-04-02T07:54:10.007Z</time></trkpt><trkpt lat="44.98262382126861" lon="-0.5997080654110277"><ele>5.0</ele><time>2026-04-02T07:54:14.007Z</time></trkpt><trkpt lat="44.98270550919777" lon="-0.599717242394063"><ele>5.0</ele><time>2026-04-02T07:54:17.007Z</time></trkpt><trkpt lat="44.9827750358648" lon="-0.5997272736168272"><ele>4.857142857142857</ele><time>2026-04-02T07:54:20.007Z</time></trkpt><trkpt lat="44.982840298904904" lon="-0.5997204838155035"><ele>4.714285714285714</ele><time>2026-04-02T07:54:25.007Z</time></trkpt><trkpt lat="44.98290834806613" lon="-0.5997160882277773"><ele>4.571428571428571</ele><time>2026-04-02T07:54:31.007Z</time></trkpt><trkpt lat="44.982971307717975" lon="-0.5997192459555596"><ele>4.428571428571429</ele><time>2026-04-02T07:54:36.007Z</time></trkpt><trkpt lat="44.98304371594124" lon="-0.599724487601969"><ele>4.285714285714286</ele><time>2026-04-02T07:54:42.007Z</time></trkpt><trkpt lat="44.983114595125244" lon="-0.5997351282202846"><ele>4.142857142857142</ele><time>2026-04-02T07:54:49.007Z</time></trkpt><trkpt lat="44.98318374767965" lon="-0.5997390901085661"><ele>4.0</ele><time>2026-04-02T07:54:55.007Z</time></trkpt><trkpt lat="44.98325317984331" lon="-0.5997600431786648"><ele>4.0</ele><time>2026-04-02T07:55:02.007Z</time></trkpt><trkpt lat="44.98332332908705" lon="-0.5997599770218881"><ele>3.9999999999999996</ele><time>2026-04-02T07:55:08.007Z</time></trkpt><trkpt lat="44.983385933059786" lon="-0.5997902575954064"><ele>4.0</ele><time>2026-04-02T07:55:13.007Z</time></trkpt><trkpt lat="44.9834502445814" lon="-0.5998266425255316"><ele>4.0</ele><time>2026-04-02T07:55:19.007Z</time></trkpt><trkpt lat="44.98351601919072" lon="-0.5998582209018332"><ele>3.9999999999999996</ele><time>2026-04-02T07:55:24.007Z</time></trkpt><trkpt lat="44.98358616756416" lon="-0.5998941208137755"><ele>4.0</ele><time>2026-04-02T07:55:30.007Z</time></trkpt><trkpt lat="44.98364657988079" lon="-0.599923941867352"><ele>4.0</ele><time>2026-04-02T07:55:35.008Z</time></trkpt><trkpt lat="44.98371502215145" lon="-0.5999625466528945"><ele>4.142857142857142</ele><time>2026-04-02T07:55:41.007Z</time></trkpt><trkpt lat="44.98377600449769" lon="-0.5999940340913855"><ele>4.285714285714286</ele><time>2026-04-02T07:55:46.008Z</time></trkpt><trkpt lat="44.98383442823174" lon="-0.6000272156338398"><ele>4.428571428571429</ele><time>2026-04-02T07:55:51.008Z</time></trkpt><trkpt lat="44.983899440815776" lon="-0.6000746580096553"><ele>4.571428571428571</ele><time>2026-04-02T07:55:56.008Z</time></trkpt><trkpt lat="44.98396903649253" lon="-0.6001056061200408"><ele>4.714285714285714</ele><time>2026-04-02T07:56:01.008Z</time></trkpt><trkpt lat="44.98403484183302" lon="-0.6001448679848618"><ele>4.857142857142857</ele><time>2026-04-02T07:56:06.008Z</time></trkpt><trkpt lat="44.98410040229539" lon="-0.600184565820193"><ele>5.0</ele><time>2026-04-02T07:56:11.008Z</time></trkpt><trkpt lat="44.984163398216076" lon="-0.6002235807201532"><ele>4.714285714285714</ele><time>2026-04-02T07:56:16.008Z</time></trkpt><trkpt lat="44.984227542358006" lon="-0.6002709411907047"><ele>4.428571428571429</ele><time>2026-04-02T07:56:21.008Z</time></trkpt><trkpt lat="44.984293046246634" lon="-0.6003105815762896"><ele>4.142857142857142</ele><time>2026-04-02T07:56:26.008Z</time></trkpt><trkpt lat="44.984357321595105" lon="-0.6003553862610921"><ele>3.8571428571428568</ele><time>2026-04-02T07:56:31.008Z</time></trkpt><trkpt lat="44.98441996268766" lon="-0.6004017468411526"><ele>3.571428571428571</ele><time>2026-04-02T07:56:36.008Z</time></trkpt><trkpt lat="44.98448535139313" lon="-0.6004410577079284"><ele>3.2857142857142856</ele><time>2026-04-02T07:56:41.008Z</time></trkpt><trkpt lat="44.984554167404404" lon="-0.600470754148207"><ele>3.0</ele><time>2026-04-02T07:56:46.008Z</time></trkpt><trkpt lat="44.98461455227414" lon="-0.6005153010283204"><ele>2.9999999999999996</ele><time>2026-04-02T07:56:51.008Z</time></trkpt><trkpt lat="44.98467021069099" lon="-0.6005628258338268"><ele>3.0</ele><time>2026-04-02T07:56:58.008Z</time></trkpt><trkpt lat="44.98472761301996" lon="-0.6006060171869158"><ele>3.0</ele><time>2026-04-02T07:57:05.008Z</time></trkpt><trkpt lat="44.984787710337066" lon="-0.6006595540431221"><ele>3.0</ele><time>2026-04-02T07:57:13.008Z</time></trkpt><trkpt lat="44.984845481058294" lon="-0.6006966014621474"><ele>3.0</ele><time>2026-04-02T07:57:19.008Z</time></trkpt><trkpt lat="44.984906994187014" lon="-0.6007416478742595"><ele>2.9999999999999996</ele><time>2026-04-02T07:57:25.008Z</time></trkpt><trkpt lat="44.98496680571104" lon="-0.6007867254147233"><ele>3.0</ele><time>2026-04-02T07:57:31.008Z</time></trkpt><trkpt lat="44.98502948541941" lon="-0.6008323823385713"><ele>3.1428571428571423</ele><time>2026-04-02T07:57:37.008Z</time></trkpt><trkpt lat="44.985096759874736" lon="-0.6008801551370518"><ele>3.2857142857142856</ele><time>2026-04-02T07:57:43.008Z</time></trkpt><trkpt lat="44.985156257927585" lon="-0.600922375350871"><ele>3.4285714285714284</ele><time>2026-04-02T07:57:49.008Z</time></trkpt><trkpt lat="44.985215948242214" lon="-0.6009658699393042"><ele>3.571428571428571</ele><time>2026-04-02T07:57:55.008Z</time></trkpt><trkpt lat="44.9852753071103" lon="-0.6010159604775639"><ele>3.714285714285714</ele><time>2026-04-02T07:58:02.008Z</time></trkpt><trkpt lat="44.98533414913479" lon="-0.6010817686661889"><ele>3.8571428571428568</ele><time>2026-04-02T07:58:08.008Z</time></trkpt><trkpt lat="44.98535743924117" lon="-0.6011681976278959"><ele>4.0</ele><time>2026-04-02T07:58:14.008Z</time></trkpt><trkpt lat="44.98536657959847" lon="-0.6012626871757524"><ele>4.285714285714286</ele><time>2026-04-02T07:58:20.008Z</time></trkpt><trkpt lat="44.98536598222199" lon="-0.6013547780339249"><ele>4.571428571428571</ele><time>2026-04-02T07:58:26.008Z</time></trkpt><trkpt lat="44.98536909068072" lon="-0.6014500055634919"><ele>4.857142857142857</ele><time>2026-04-02T07:58:32.008Z</time></trkpt><trkpt lat="44.9853752866595" lon="-0.6015530062974326"><ele>5.142857142857142</ele><time>2026-04-02T07:58:38.008Z</time></trkpt><trkpt lat="44.98537109829867" lon="-0.601643641934355"><ele>5.428571428571429</ele><time>2026-04-02T07:58:43.008Z</time></trkpt><trkpt lat="44.98536612365937" lon="-0.6017350204052998"><ele>5.7142857142857135</ele><time>2026-04-02T07:58:48.008Z</time></trkpt><trkpt lat="44.98536845278693" lon="-0.6018312829725009"><ele>6.0</ele><time>2026-04-02T07:58:53.008Z</time></trkpt><trkpt lat="44.98539664448368" lon="-0.6019313278172495"><ele>5.999999999999999</ele><time>2026-04-02T07:58:59.008Z</time></trkpt><trkpt lat="44.98544579351987" lon="-0.6019916511612695"><ele>6.0</ele><time>2026-04-02T07:59:04.008Z</time></trkpt><trkpt lat="44.98549947610039" lon="-0.602040908813317"><ele>6.0</ele><time>2026-04-02T07:59:09.008Z</time></trkpt><trkpt lat="44.98555944355602" lon="-0.6020831758333215"><ele>6.0</ele><time>2026-04-02T07:59:14.008Z</time></trkpt><trkpt lat="44.98562043190984" lon="-0.6021267536383567"><ele>6.0</ele><time>2026-04-02T07:59:20.008Z</time></trkpt><trkpt lat="44.98568015011944" lon="-0.6021777604063163"><ele>5.999999999999999</ele><time>2026-04-02T07:59:26.008Z</time></trkpt><trkpt lat="44.98574089778918" lon="-0.6022336628021201"><ele>6.0</ele><time>2026-04-02T07:59:33.008Z</time></trkpt><trkpt lat="44.98580322748169" lon="-0.602296903405127"><ele>5.857142857142857</ele><time>2026-04-02T07:59:39.008Z</time></trkpt><trkpt lat="44.98586947433348" lon="-0.6023487609121569"><ele>5.714285714285714</ele><time>2026-04-02T07:59:45.008Z</time></trkpt><trkpt lat="44.98592749227201" lon="-0.6024042592939239"><ele>5.571428571428571</ele><time>2026-04-02T07:59:51.008Z</time></trkpt><trkpt lat="44.98599310005078" lon="-0.6024450461975577"><ele>5.428571428571429</ele><time>2026-04-02T07:59:57.008Z</time></trkpt><trkpt lat="44.98605418593805" lon="-0.6024902569493227"><ele>5.285714285714286</ele><time>2026-04-02T08:00:02.008Z</time></trkpt><trkpt lat="44.986113297965936" lon="-0.6025405215037067"><ele>5.142857142857142</ele><time>2026-04-02T08:00:08.008Z</time></trkpt><trkpt lat="44.98617749214796" lon="-0.6025858159459477"><ele>5.0</ele><time>2026-04-02T08:00:14.008Z</time></trkpt><trkpt lat="44.986207620170894" lon="-0.602669704125212"><ele>5.0</ele><time>2026-04-02T08:00:20.008Z</time></trkpt><trkpt lat="44.9862098863381" lon="-0.6027635747977818"><ele>5.0</ele><time>2026-04-02T08:00:25.008Z</time></trkpt><trkpt lat="44.98621793166948" lon="-0.6028615569065928"><ele>5.0</ele><time>2026-04-02T08:00:30.008Z</time></trkpt><trkpt lat="44.98625129198426" lon="-0.6029529082051253"><ele>5.0</ele><time>2026-04-02T08:00:35.008Z</time></trkpt><trkpt lat="44.98629511444765" lon="-0.6030252806148652"><ele>5.0</ele><time>2026-04-02T08:00:40.008Z</time></trkpt><trkpt lat="44.98634519456307" lon="-0.6030799394682606"><ele>5.0</ele><time>2026-04-02T08:00:46.008Z</time></trkpt><trkpt lat="44.98639896234583" lon="-0.6031373363009845"><ele>5.0</ele><time>2026-04-02T08:00:51.008Z</time></trkpt><trkpt lat="44.98646008435469" lon="-0.6031902724606649"><ele>4.857142857142857</ele><time>2026-04-02T08:00:57.008Z</time></trkpt><trkpt lat="44.98653051695696" lon="-0.6032386404652421"><ele>4.714285714285714</ele><time>2026-04-02T08:01:03.008Z</time></trkpt><trkpt lat="44.986601915224696" lon="-0.6032714562866195"><ele>4.571428571428571</ele><time>2026-04-02T08:01:09.008Z</time></trkpt><trkpt lat="44.98666982507211" lon="-0.6032950430822114"><ele>4.428571428571429</ele><time>2026-04-02T08:01:15.008Z</time></trkpt><trkpt lat="44.986738660955204" lon="-0.6033134000206307"><ele>4.285714285714286</ele><time>2026-04-02T08:01:20.008Z</time></trkpt><trkpt lat="44.9868117129636" lon="-0.6033207540534847"><ele>4.142857142857142</ele><time>2026-04-02T08:01:25.008Z</time></trkpt><trkpt lat="44.98688286054723" lon="-0.6033185036252131"><ele>4.0</ele><time>2026-04-02T08:01:30.008Z</time></trkpt><trkpt lat="44.986950147003576" lon="-0.6033228835284805"><ele>4.0</ele><time>2026-04-02T08:01:35.008Z</time></trkpt><trkpt lat="44.987021406803656" lon="-0.6033305422564381"><ele>3.9999999999999996</ele><time>2026-04-02T08:01:41.008Z</time></trkpt><trkpt lat="44.987094730728764" lon="-0.6033405845531853"><ele>4.0</ele><time>2026-04-02T08:01:47.008Z</time></trkpt><trkpt lat="44.987142977097534" lon="-0.6034027992783388"><ele>4.0</ele><time>2026-04-02T08:01:53.008Z</time></trkpt><trkpt lat="44.987129447192615" lon="-0.6034984138592987"><ele>3.9999999999999996</ele><time>2026-04-02T08:01:59.009Z</time></trkpt><trkpt lat="44.98711755760474" lon="-0.6035881184401469"><ele>4.0</ele><time>2026-04-02T08:02:05.009Z</time></trkpt><trkpt lat="44.9870856217808" lon="-0.6036859749113731"><ele>4.0</ele><time>2026-04-02T08:02:10.009Z</time></trkpt><trkpt lat="44.98706367649987" lon="-0.6037834259860457"><ele>3.714285714285714</ele><time>2026-04-02T08:02:15.009Z</time></trkpt><trkpt lat="44.98705083360255" lon="-0.6038783537757147"><ele>3.428571428571428</ele><time>2026-04-02T08:02:20.009Z</time></trkpt><trkpt lat="44.987034373284615" lon="-0.6039731868775244"><ele>3.142857142857143</ele><time>2026-04-02T08:02:25.009Z</time></trkpt><trkpt lat="44.98701476632176" lon="-0.6040600867498611"><ele>2.8571428571428568</ele><time>2026-04-02T08:02:30.009Z</time></trkpt><trkpt lat="44.98700776321809" lon="-0.6041492685745046"><ele>2.571428571428571</ele><time>2026-04-02T08:02:35.009Z</time></trkpt><trkpt lat="44.98699347278459" lon="-0.6042389198658231"><ele>2.2857142857142856</ele><time>2026-04-02T08:02:40.009Z</time></trkpt><trkpt lat="44.986969249370524" lon="-0.6043378822268306"><ele>2.0</ele><time>2026-04-02T08:02:46.009Z</time></trkpt><trkpt lat="44.986948162544756" lon="-0.6044323872784374"><ele>2.4285714285714284</ele><time>2026-04-02T08:02:54.009Z</time></trkpt><trkpt lat="44.986941927672945" lon="-0.6045370755475927"><ele>2.8571428571428568</ele><time>2026-04-02T08:03:00.009Z</time></trkpt><trkpt lat="44.98691842787352" lon="-0.6046205350019201"><ele>3.2857142857142856</ele><time>2026-04-02T08:03:05.009Z</time></trkpt><trkpt lat="44.98689280192295" lon="-0.604718951801228"><ele>3.7142857142857144</ele><time>2026-04-02T08:03:12.009Z</time></trkpt><trkpt lat="44.98687399848064" lon="-0.6048150546739084"><ele>4.142857142857143</ele><time>2026-04-02T08:03:18.009Z</time></trkpt><trkpt lat="44.98685469610946" lon="-0.604906664339538"><ele>4.571428571428571</ele><time>2026-04-02T08:03:23.009Z</time></trkpt><trkpt lat="44.98683206125817" lon="-0.604992460834938"><ele>5.0</ele><time>2026-04-02T08:03:28.009Z</time></trkpt><trkpt lat="44.98680862666793" lon="-0.6050838227220209"><ele>5.0</ele><time>2026-04-02T08:03:34.009Z</time></trkpt><trkpt lat="44.98678879867268" lon="-0.6051760053972037"><ele>5.0</ele><time>2026-04-02T08:03:40.009Z</time></trkpt><trkpt lat="44.98677203077172" lon="-0.6052666333342894"><ele>5.0</ele><time>2026-04-02T08:03:46.009Z</time></trkpt><trkpt lat="44.98676921351227" lon="-0.6053601747350038"><ele>5.0</ele><time>2026-04-02T08:03:51.009Z</time></trkpt><trkpt lat="44.98678058491101" lon="-0.6054688146259735"><ele>5.0</ele><time>2026-04-02T08:03:57.009Z</time></trkpt><trkpt lat="44.98681784690398" lon="-0.6055461833847521"><ele>5.0</ele><time>2026-04-02T08:04:03.009Z</time></trkpt><trkpt lat="44.98687586369456" lon="-0.6055973645514485"><ele>5.0</ele><time>2026-04-02T08:04:08.009Z</time></trkpt><trkpt lat="44.98693123846023" lon="-0.6056563494305336"><ele>5.285714285714286</ele><time>2026-04-02T08:04:14.009Z</time></trkpt><trkpt lat="44.98698008314283" lon="-0.6057205442648329"><ele>5.571428571428571</ele><time>2026-04-02T08:04:20.009Z</time></trkpt><trkpt lat="44.98704152043727" lon="-0.6057812090667889"><ele>5.857142857142858</ele><time>2026-04-02T08:04:26.009Z</time></trkpt><trkpt lat="44.98710224024602" lon="-0.6058315893285177"><ele>6.142857142857142</ele><time>2026-04-02T08:04:31.009Z</time></trkpt><trkpt lat="44.98716033624892" lon="-0.6058889658505084"><ele>6.428571428571429</ele><time>2026-04-02T08:04:37.009Z</time></trkpt><trkpt lat="44.987218704234266" lon="-0.6059485100201478"><ele>6.714285714285714</ele><time>2026-04-02T08:04:43.009Z</time></trkpt><trkpt lat="44.987273369813344" lon="-0.6059980348473688"><ele>7.0</ele><time>2026-04-02T08:04:49.009Z</time></trkpt><trkpt lat="44.98732828369984" lon="-0.6060438751941009"><ele>7.0</ele><time>2026-04-02T08:04:54.009Z</time></trkpt><trkpt lat="44.98732708662979" lon="-0.606138918126305"><ele>7.0</ele><time>2026-04-02T08:05:00.009Z</time></trkpt><trkpt lat="44.987315821195075" lon="-0.6062327331028096"><ele>7.0</ele><time>2026-04-02T08:05:06.009Z</time></trkpt><trkpt lat="44.98729586209567" lon="-0.6063281085492623"><ele>7.0</ele><time>2026-04-02T08:05:11.009Z</time></trkpt><trkpt lat="44.987281231100425" lon="-0.6064290791692791"><ele>7.0</ele><time>2026-04-02T08:05:17.009Z</time></trkpt><trkpt lat="44.987268050508035" lon="-0.6065162577087014"><ele>7.0</ele><time>2026-04-02T08:05:21.009Z</time></trkpt><trkpt lat="44.98724859785823" lon="-0.6066144127605897"><ele>7.0</ele><time>2026-04-02T08:05:26.009Z</time></trkpt><trkpt lat="44.98722453617459" lon="-0.6067128308047299"><ele>7.142857142857142</ele><time>2026-04-02T08:05:32.009Z</time></trkpt><trkpt lat="44.98720158164641" lon="-0.6068067321926088"><ele>7.285714285714286</ele><time>2026-04-02T08:05:38.009Z</time></trkpt><trkpt lat="44.987180626367966" lon="-0.6068927740374597"><ele>7.428571428571429</ele><time>2026-04-02T08:05:43.009Z</time></trkpt><trkpt lat="44.98716582059113" lon="-0.606979320558136"><ele>7.571428571428571</ele><time>2026-04-02T08:05:48.009Z</time></trkpt><trkpt lat="44.98714816352132" lon="-0.6070729377769133"><ele>7.7142857142857135</ele><time>2026-04-02T08:05:53.009Z</time></trkpt><trkpt lat="44.987130691726435" lon="-0.6071723162039644"><ele>7.857142857142857</ele><time>2026-04-02T08:05:58.009Z</time></trkpt><trkpt lat="44.987135104489816" lon="-0.6072690403254363"><ele>8.0</ele><time>2026-04-02T08:06:03.009Z</time></trkpt><trkpt lat="44.987190308573666" lon="-0.6073355113066078"><ele>8.0</ele><time>2026-04-02T08:06:09.01Z</time></trkpt><trkpt lat="44.98725126309396" lon="-0.6073677274906483"><ele>7.999999999999999</ele><time>2026-04-02T08:06:14.01Z</time></trkpt><trkpt lat="44.987319559831576" lon="-0.6074029815458464"><ele>8.0</ele><time>2026-04-02T08:06:20.01Z</time></trkpt><trkpt lat="44.98738000136582" lon="-0.6074365478973037"><ele>8.0</ele><time>2026-04-02T08:06:25.01Z</time></trkpt><trkpt lat="44.987441733421235" lon="-0.6074696130692079"><ele>7.999999999999999</ele><time>2026-04-02T08:06:30.01Z</time></trkpt><trkpt lat="44.987504665922515" lon="-0.607499249309652"><ele>8.0</ele><time>2026-04-02T08:06:35.01Z</time></trkpt><trkpt lat="44.98757154324116" lon="-0.607535238056783"><ele>8.0</ele><time>2026-04-02T08:06:40.01Z</time></trkpt><trkpt lat="44.98763607369873" lon="-0.6075745017331591"><ele>8.0</ele><time>2026-04-02T08:06:46.01Z</time></trkpt><trkpt lat="44.98769832841605" lon="-0.6076075855856137"><ele>7.999999999999999</ele><time>2026-04-02T08:06:51.01Z</time></trkpt><trkpt lat="44.98775794584399" lon="-0.6076435585117957"><ele>8.0</ele><time>2026-04-02T08:06:56.01Z</time></trkpt><trkpt lat="44.987817595038145" lon="-0.6076767069173966"><ele>8.0</ele><time>2026-04-02T08:07:01.01Z</time></trkpt><trkpt lat="44.987889592298494" lon="-0.6077023594901237"><ele>7.999999999999999</ele><time>2026-04-02T08:07:06.01Z</time></trkpt><trkpt lat="44.987952437313695" lon="-0.6077379245058214"><ele>8.0</ele><time>2026-04-02T08:07:11.01Z</time></trkpt><trkpt lat="44.98799942859098" lon="-0.607813157427268"><ele>8.0</ele><time>2026-04-02T08:07:17.01Z</time></trkpt><trkpt lat="44.98799124239744" lon="-0.6079124973240401"><ele>8.142857142857142</ele><time>2026-04-02T08:07:23.01Z</time></trkpt><trkpt lat="44.98799201798213" lon="-0.6080149443312554"><ele>8.285714285714285</ele><time>2026-04-02T08:07:29.01Z</time></trkpt><trkpt lat="44.98803434344261" lon="-0.608085959918998"><ele>8.428571428571429</ele><time>2026-04-02T08:07:35.01Z</time></trkpt><trkpt lat="44.988094692486776" lon="-0.6081263196501477"><ele>8.571428571428571</ele><time>2026-04-02T08:07:41.01Z</time></trkpt><trkpt lat="44.98813819177002" lon="-0.6081994842855707"><ele>8.714285714285715</ele><time>2026-04-02T08:07:47.01Z</time></trkpt><trkpt lat="44.988139607937995" lon="-0.6083015366769058"><ele>8.857142857142858</ele><time>2026-04-02T08:07:54.01Z</time></trkpt><trkpt lat="44.98812781282747" lon="-0.6083891010230627"><ele>9.0</ele><time>2026-04-02T08:07:59.01Z</time></trkpt><trkpt lat="44.988116226000855" lon="-0.6084776433135658"><ele>9.000000000000002</ele><time>2026-04-02T08:08:04.01Z</time></trkpt><trkpt lat="44.98810496044263" lon="-0.6085652491057002"><ele>9.0</ele><time>2026-04-02T08:08:09.01Z</time></trkpt><trkpt lat="44.988094382576314" lon="-0.608661169509336"><ele>9.0</ele><time>2026-04-02T08:08:15.01Z</time></trkpt><trkpt lat="44.9880776280583" lon="-0.6087547416220216"><ele>9.0</ele><time>2026-04-02T08:08:20.01Z</time></trkpt><trkpt lat="44.988069189653615" lon="-0.6088571747989288"><ele>9.0</ele><time>2026-04-02T08:08:26.01Z</time></trkpt><trkpt lat="44.98806583235686" lon="-0.6089524364561375"><ele>9.000000000000002</ele><time>2026-04-02T08:08:31.01Z</time></trkpt><trkpt lat="44.98804986875951" lon="-0.6090441049690738"><ele>9.0</ele><time>2026-04-02T08:08:37.01Z</time></trkpt><trkpt lat="44.988044636569875" lon="-0.6091367412308201"><ele>9.000000000000002</ele><time>2026-04-02T08:08:42.01Z</time></trkpt><trkpt lat="44.98806923404213" lon="-0.6092213785382858"><ele>9.0</ele><time>2026-04-02T08:08:48.01Z</time></trkpt><trkpt lat="44.9881368920453" lon="-0.6092371122325029"><ele>9.0</ele><time>2026-04-02T08:08:59.01Z</time></trkpt><trkpt lat="44.98820803186743" lon="-0.6092445468456426"><ele>9.0</ele><time>2026-04-02T08:09:05.01Z</time></trkpt><trkpt lat="44.98827630127065" lon="-0.6092560149432759"><ele>9.0</ele><time>2026-04-02T08:09:11.01Z</time></trkpt><trkpt lat="44.98834397931852" lon="-0.6092734876613461"><ele>9.000000000000002</ele><time>2026-04-02T08:09:18.01Z</time></trkpt><trkpt lat="44.98836523676084" lon="-0.6093714428714229"><ele>9.0</ele><time>2026-04-02T08:09:27.01Z</time></trkpt><trkpt lat="44.98836919362107" lon="-0.6094731536153248"><ele>9.142857142857144</ele><time>2026-04-02T08:09:34.01Z</time></trkpt><trkpt lat="44.98836081011788" lon="-0.6095725239729256"><ele>9.285714285714286</ele><time>2026-04-02T08:09:40.01Z</time></trkpt><trkpt lat="44.988346813536154" lon="-0.6096618822749474"><ele>9.428571428571429</ele><time>2026-04-02T08:09:45.01Z</time></trkpt><trkpt lat="44.98833753054691" lon="-0.6097672811491675"><ele>9.571428571428573</ele><time>2026-04-02T08:09:51.01Z</time></trkpt><trkpt lat="44.988322439509886" lon="-0.6098568206964415"><ele>9.714285714285715</ele><time>2026-04-02T08:09:57.01Z</time></trkpt><trkpt lat="44.9883173281925" lon="-0.6099632492997658"><ele>9.857142857142858</ele><time>2026-04-02T08:10:03.01Z</time></trkpt><trkpt lat="44.98830548514628" lon="-0.6100630150293332"><ele>10.0</ele><time>2026-04-02T08:10:09.01Z</time></trkpt><trkpt lat="44.988290004936054" lon="-0.610149411787039"><ele>9.857142857142858</ele><time>2026-04-02T08:10:14.011Z</time></trkpt><trkpt lat="44.988278744369765" lon="-0.6102401492615063"><ele>9.714285714285715</ele><time>2026-04-02T08:10:20.01Z</time></trkpt><trkpt lat="44.988264531464814" lon="-0.6103351701230395"><ele>9.571428571428573</ele><time>2026-04-02T08:10:26.011Z</time></trkpt><trkpt lat="44.9882494224044" lon="-0.6104243063641986"><ele>9.428571428571429</ele><time>2026-04-02T08:10:31.011Z</time></trkpt><trkpt lat="44.98818789161355" lon="-0.610478590093982"><ele>9.285714285714286</ele><time>2026-04-02T08:10:38.011Z</time></trkpt><trkpt lat="44.988124148377345" lon="-0.6104667115038749"><ele>9.142857142857144</ele><time>2026-04-02T08:10:43.011Z</time></trkpt><trkpt lat="44.98807734307217" lon="-0.610532333105438"><ele>9.0</ele><time>2026-04-02T08:10:49.011Z</time></trkpt><trkpt lat="44.9880713267894" lon="-0.6106311985162352"><ele>9.000000000000002</ele><time>2026-04-02T08:10:54.011Z</time></trkpt><trkpt lat="44.988069633467255" lon="-0.6107292646411243"><ele>9.0</ele><time>2026-04-02T08:10:59.011Z</time></trkpt><trkpt lat="44.98806508581862" lon="-0.6108304475885605"><ele>9.0</ele><time>2026-04-02T08:11:04.011Z</time></trkpt><trkpt lat="44.98806845601412" lon="-0.6109273890714516"><ele>9.0</ele><time>2026-04-02T08:11:09.011Z</time></trkpt><trkpt lat="44.988071867101944" lon="-0.6110297197520751"><ele>9.0</ele><time>2026-04-02T08:11:14.011Z</time></trkpt><trkpt lat="44.98806784428903" lon="-0.6111335370815302"><ele>9.000000000000002</ele><time>2026-04-02T08:11:19.011Z</time></trkpt><trkpt lat="44.988063909325504" lon="-0.6112346424831975"><ele>9.0</ele><time>2026-04-02T08:11:24.011Z</time></trkpt><trkpt lat="44.988056513233005" lon="-0.611341203194464"><ele>9.142857142857144</ele><time>2026-04-02T08:11:29.011Z</time></trkpt><trkpt lat="44.988055677883295" lon="-0.6114460835549174"><ele>9.285714285714286</ele><time>2026-04-02T08:11:34.011Z</time></trkpt><trkpt lat="44.98804360255106" lon="-0.6115471828161594"><ele>9.428571428571429</ele><time>2026-04-02T08:11:39.011Z</time></trkpt><trkpt lat="44.988033559313266" lon="-0.611655330133542"><ele>9.571428571428573</ele><time>2026-04-02T08:11:44.011Z</time></trkpt><trkpt lat="44.988031989008654" lon="-0.6117573947594996"><ele>9.714285714285715</ele><time>2026-04-02T08:11:49.011Z</time></trkpt><trkpt lat="44.98802018069997" lon="-0.611857917519297"><ele>9.857142857142858</ele><time>2026-04-02T08:11:54.011Z</time></trkpt><trkpt lat="44.98801519573235" lon="-0.6119657711148998"><ele>10.0</ele><time>2026-04-02T08:11:59.011Z</time></trkpt><trkpt lat="44.988012121327316" lon="-0.6120671713878619"><ele>10.0</ele><time>2026-04-02T08:12:04.011Z</time></trkpt><trkpt lat="44.98801260852548" lon="-0.612169565645884"><ele>10.0</ele><time>2026-04-02T08:12:09.011Z</time></trkpt><trkpt lat="44.98800325817538" lon="-0.6122612893041662"><ele>10.0</ele><time>2026-04-02T08:12:13.011Z</time></trkpt><trkpt lat="44.98800714511568" lon="-0.6123652298230253"><ele>10.0</ele><time>2026-04-02T08:12:18.011Z</time></trkpt><trkpt lat="44.98802403319683" lon="-0.6124557839752127"><ele>10.0</ele><time>2026-04-02T08:12:23.011Z</time></trkpt><trkpt lat="44.98807654575474" lon="-0.6125081294464049"><ele>10.0</ele><time>2026-04-02T08:12:28.011Z</time></trkpt><trkpt lat="44.98814581436629" lon="-0.6125367955324449"><ele>10.0</ele><time>2026-04-02T08:12:34.011Z</time></trkpt><trkpt lat="44.98821284580385" lon="-0.6125524518477317"><ele>10.0</ele><time>2026-04-02T08:12:39.011Z</time></trkpt><trkpt lat="44.98827892688886" lon="-0.6125725067547594"><ele>10.0</ele><time>2026-04-02T08:12:44.011Z</time></trkpt><trkpt lat="44.98835098202162" lon="-0.6125878892490495"><ele>10.0</ele><time>2026-04-02T08:12:49.011Z</time></trkpt><trkpt lat="44.98842516608913" lon="-0.6125929601216756"><ele>10.0</ele><time>2026-04-02T08:12:54.011Z</time></trkpt><trkpt lat="44.98849837312605" lon="-0.6125949104721308"><ele>10.0</ele><time>2026-04-02T08:13:00.011Z</time></trkpt><trkpt lat="44.988567501332525" lon="-0.6126079742443274"><ele>10.0</ele><time>2026-04-02T08:13:05.011Z</time></trkpt><trkpt lat="44.98863810690467" lon="-0.6126278417331925"><ele>10.0</ele><time>2026-04-02T08:13:11.011Z</time></trkpt><trkpt lat="44.988711753958896" lon="-0.6126268583520545"><ele>10.0</ele><time>2026-04-02T08:13:16.011Z</time></trkpt><trkpt lat="44.98877780520483" lon="-0.6126513891766562"><ele>10.0</ele><time>2026-04-02T08:13:21.011Z</time></trkpt><trkpt lat="44.98883064248749" lon="-0.6127088413806958"><ele>10.0</ele><time>2026-04-02T08:13:27.011Z</time></trkpt><trkpt lat="44.98887091786477" lon="-0.6127918271568326"><ele>10.0</ele><time>2026-04-02T08:13:52.011Z</time></trkpt><trkpt lat="44.98887121523684" lon="-0.6128879294052124"><ele>10.0</ele><time>2026-04-02T08:13:58.011Z</time></trkpt><trkpt lat="44.9888630108285" lon="-0.6129899838093767"><ele>10.0</ele><time>2026-04-02T08:14:05.011Z</time></trkpt><trkpt lat="44.988856007981795" lon="-0.6130861043806443"><ele>10.0</ele><time>2026-04-02T08:14:11.011Z</time></trkpt><trkpt lat="44.98883009767391" lon="-0.6131843798186493"><ele>10.0</ele><time>2026-04-02T08:14:17.011Z</time></trkpt><trkpt lat="44.98882589790988" lon="-0.6132868760780825"><ele>10.0</ele><time>2026-04-02T08:14:24.011Z</time></trkpt><trkpt lat="44.98882271266457" lon="-0.6133921434567047"><ele>10.0</ele><time>2026-04-02T08:14:30.011Z</time></trkpt><trkpt lat="44.988803950643494" lon="-0.6134807760738958"><ele>10.0</ele><time>2026-04-02T08:14:35.011Z</time></trkpt><trkpt lat="44.98879266479642" lon="-0.6135745215849742"><ele>10.0</ele><time>2026-04-02T08:14:41.012Z</time></trkpt><trkpt lat="44.988776953438204" lon="-0.6136747478291633"><ele>10.0</ele><time>2026-04-02T08:14:47.012Z</time></trkpt><trkpt lat="44.98876444599316" lon="-0.6137620566336207"><ele>10.0</ele><time>2026-04-02T08:14:52.012Z</time></trkpt><trkpt lat="44.98875414855524" lon="-0.6138540536668954"><ele>9.857142857142858</ele><time>2026-04-02T08:14:57.012Z</time></trkpt><trkpt lat="44.98873514577152" lon="-0.6139459888543705"><ele>9.714285714285715</ele><time>2026-04-02T08:15:03.012Z</time></trkpt><trkpt lat="44.98870977979188" lon="-0.6140443693887273"><ele>9.571428571428573</ele><time>2026-04-02T08:15:09.012Z</time></trkpt><trkpt lat="44.98868047281926" lon="-0.6141489549102772"><ele>9.428571428571429</ele><time>2026-04-02T08:15:14.012Z</time></trkpt><trkpt lat="44.98866426413658" lon="-0.6142443879770392"><ele>9.285714285714286</ele><time>2026-04-02T08:15:18.012Z</time></trkpt><trkpt lat="44.9886405376539" lon="-0.6143364139357581"><ele>9.142857142857144</ele><time>2026-04-02T08:15:20.012Z</time></trkpt><trkpt lat="44.988615285777534" lon="-0.614424423782121"><ele>9.0</ele><time>2026-04-02T08:15:22.012Z</time></trkpt><trkpt lat="44.98857573424234" lon="-0.6145275135625152"><ele>9.0</ele><time>2026-04-02T08:15:25.012Z</time></trkpt><trkpt lat="44.988548618494036" lon="-0.6146088900720102"><ele>9.0</ele><time>2026-04-02T08:15:27.012Z</time></trkpt><trkpt lat="44.9885190594452" lon="-0.6146942978699849"><ele>9.0</ele><time>2026-04-02T08:15:29.012Z</time></trkpt><trkpt lat="44.988495876224185" lon="-0.6148212473221909"><ele>9.0</ele><time>2026-04-02T08:15:32.012Z</time></trkpt><trkpt lat="44.988472346344" lon="-0.6149149439741043"><ele>9.0</ele><time>2026-04-02T08:15:34.012Z</time></trkpt><trkpt lat="44.988464885558976" lon="-0.6150296578146347"><ele>9.0</ele><time>2026-04-02T08:15:36.012Z</time></trkpt><trkpt lat="44.988437512364825" lon="-0.6151324064343751"><ele>9.000000000000002</ele><time>2026-04-02T08:15:38.012Z</time></trkpt><trkpt lat="44.98843402104636" lon="-0.6152397586360872"><ele>9.0</ele><time>2026-04-02T08:15:40.012Z</time></trkpt><trkpt lat="44.98843390650748" lon="-0.6153375298774462"><ele>9.0</ele><time>2026-04-02T08:15:42.012Z</time></trkpt><trkpt lat="44.98843073524203" lon="-0.6154534457219283"><ele>9.0</ele><time>2026-04-02T08:15:44.012Z</time></trkpt><trkpt lat="44.98842345507448" lon="-0.6155600563078953"><ele>9.0</ele><time>2026-04-02T08:15:46.012Z</time></trkpt><trkpt lat="44.98842653655424" lon="-0.6156596521080353"><ele>9.000000000000002</ele><time>2026-04-02T08:15:48.012Z</time></trkpt><trkpt lat="44.98842801233331" lon="-0.6157638515668266"><ele>9.0</ele><time>2026-04-02T08:15:50.012Z</time></trkpt><trkpt lat="44.98842526104537" lon="-0.6158673030967519"><ele>8.857142857142858</ele><time>2026-04-02T08:15:52.012Z</time></trkpt><trkpt lat="44.988425679833185" lon="-0.6159755873858933"><ele>8.714285714285715</ele><time>2026-04-02T08:15:54.012Z</time></trkpt><trkpt lat="44.98842067776184" lon="-0.6160777400584754"><ele>8.571428571428571</ele><time>2026-04-02T08:15:56.012Z</time></trkpt><trkpt lat="44.98842527917479" lon="-0.6161767995648713"><ele>8.428571428571429</ele><time>2026-04-02T08:15:58.012Z</time></trkpt><trkpt lat="44.98841419446367" lon="-0.6162833895242906"><ele>8.285714285714285</ele><time>2026-04-02T08:16:00.012Z</time></trkpt><trkpt lat="44.98841113106281" lon="-0.616375113753538"><ele>8.142857142857142</ele><time>2026-04-02T08:16:02.012Z</time></trkpt><trkpt lat="44.98840714064063" lon="-0.6164703236778237"><ele>8.0</ele><time>2026-04-02T08:16:04.012Z</time></trkpt><trkpt lat="44.98840466816259" lon="-0.6165695962932157"><ele>8.333333333333332</ele><time>2026-04-02T08:16:06.012Z</time></trkpt><trkpt lat="44.98839762475725" lon="-0.616666333075981"><ele>8.666666666666666</ele><time>2026-04-02T08:16:08.012Z</time></trkpt><trkpt lat="44.988380571344216" lon="-0.6167648117659611"><ele>9.0</ele><time>2026-04-02T08:16:10.012Z</time></trkpt><trkpt lat="44.988371791885854" lon="-0.6168578325361694"><ele>9.333333333333334</ele><time>2026-04-02T08:16:12.012Z</time></trkpt><trkpt lat="44.98835283923281" lon="-0.616972347224288"><ele>9.666666666666668</ele><time>2026-04-02T08:16:15.012Z</time></trkpt><trkpt lat="44.988338775434165" lon="-0.6170822269051358"><ele>10.0</ele><time>2026-04-02T08:16:17.012Z</time></trkpt><trkpt lat="44.988309685365515" lon="-0.6171914300518275"><ele>10.0</ele><time>2026-04-02T08:16:19.012Z</time></trkpt><trkpt lat="44.988278104267216" lon="-0.6173165938845261"><ele>10.0</ele><time>2026-04-02T08:16:22.012Z</time></trkpt><trkpt lat="44.98824997846417" lon="-0.6174372540011629"><ele>10.0</ele><time>2026-04-02T08:16:25.012Z</time></trkpt><trkpt lat="44.98824491915857" lon="-0.6175373285543752"><ele>10.0</ele><time>2026-04-02T08:16:27.012Z</time></trkpt><trkpt lat="44.988224577276576" lon="-0.6176432550837583"><ele>10.0</ele><time>2026-04-02T08:16:29.012Z</time></trkpt><trkpt lat="44.988212343012535" lon="-0.6177453355395526"><ele>10.0</ele><time>2026-04-02T08:16:31.012Z</time></trkpt><trkpt lat="44.98820840864917" lon="-0.6178481501592289"><ele>10.0</ele><time>2026-04-02T08:16:33.012Z</time></trkpt><trkpt lat="44.98819985170836" lon="-0.6179474756806337"><ele>10.0</ele><time>2026-04-02T08:16:35.012Z</time></trkpt><trkpt lat="44.98819618908949" lon="-0.6180496913166712"><ele>10.0</ele><time>2026-04-02T08:16:37.012Z</time></trkpt><trkpt lat="44.98819505949845" lon="-0.6181638567129302"><ele>10.0</ele><time>2026-04-02T08:16:39.011Z</time></trkpt><trkpt lat="44.98818832973092" lon="-0.618286742419854"><ele>10.0</ele><time>2026-04-02T08:16:42.012Z</time></trkpt><trkpt lat="44.98819324185471" lon="-0.6183829301573487"><ele>10.0</ele><time>2026-04-02T08:16:44.012Z</time></trkpt><trkpt lat="44.988187242845996" lon="-0.6184722412784842"><ele>10.0</ele><time>2026-04-02T08:16:46.012Z</time></trkpt><trkpt lat="44.98819153637116" lon="-0.6185615252159296"><ele>10.0</ele><time>2026-04-02T08:16:48.012Z</time></trkpt><trkpt lat="44.9881958309878" lon="-0.6186516954800548"><ele>10.0</ele><time>2026-04-02T08:16:50.012Z</time></trkpt><trkpt lat="44.98819710979274" lon="-0.6187430583915314"><ele>10.0</ele><time>2026-04-02T08:16:52.012Z</time></trkpt><trkpt lat="44.98820050234412" lon="-0.6188440535234595"><ele>10.0</ele><time>2026-04-02T08:16:54.012Z</time></trkpt><trkpt lat="44.98819772437472" lon="-0.6189414330522834"><ele>10.0</ele><time>2026-04-02T08:16:56.012Z</time></trkpt><trkpt lat="44.9882038367622" lon="-0.6190360803133901"><ele>10.0</ele><time>2026-04-02T08:16:58.012Z</time></trkpt><trkpt lat="44.988204442021484" lon="-0.6191331793720892"><ele>10.0</ele><time>2026-04-02T08:17:00.012Z</time></trkpt><trkpt lat="44.988207132092306" lon="-0.6192378196991205"><ele>10.0</ele><time>2026-04-02T08:17:02.012Z</time></trkpt><trkpt lat="44.98821160907087" lon="-0.619337994705671"><ele>10.0</ele><time>2026-04-02T08:17:04.012Z</time></trkpt><trkpt lat="44.98820380267125" lon="-0.6194569511746976"><ele>10.0</ele><time>2026-04-02T08:17:06.012Z</time></trkpt><trkpt lat="44.98822025494005" lon="-0.619576204292692"><ele>10.0</ele><time>2026-04-02T08:17:08.012Z</time></trkpt><trkpt lat="44.98824869534306" lon="-0.6197075895594417"><ele>10.0</ele><time>2026-04-02T08:17:11.012Z</time></trkpt><trkpt lat="44.988252080953465" lon="-0.6197998813608526"><ele>10.0</ele><time>2026-04-02T08:17:13.012Z</time></trkpt><trkpt lat="44.988252992488995" lon="-0.6198989083136638"><ele>9.833333333333334</ele><time>2026-04-02T08:17:15.012Z</time></trkpt><trkpt lat="44.98826164286758" lon="-0.6199961278071171"><ele>9.666666666666668</ele><time>2026-04-02T08:17:17.012Z</time></trkpt><trkpt lat="44.98827322795336" lon="-0.6201148980708119"><ele>9.5</ele><time>2026-04-02T08:17:20.012Z</time></trkpt><trkpt lat="44.98829336809195" lon="-0.6202357483335389"><ele>9.333333333333334</ele><time>2026-04-02T08:17:23.012Z</time></trkpt><trkpt lat="44.98830369276448" lon="-0.6203533809944761"><ele>9.166666666666666</ele><time>2026-04-02T08:17:26.012Z</time></trkpt><trkpt lat="44.98833106632258" lon="-0.6204349180576295"><ele>9.0</ele><time>2026-04-02T08:17:28.012Z</time></trkpt><trkpt lat="44.98837003626444" lon="-0.6205182696981913"><ele>10.166666666666666</ele><time>2026-04-02T08:17:30.012Z</time></trkpt><trkpt lat="44.98842096515367" lon="-0.6206327805825809"><ele>11.333333333333332</ele><time>2026-04-02T08:17:33.012Z</time></trkpt><trkpt lat="44.98845255332317" lon="-0.6207433935299377"><ele>12.5</ele><time>2026-04-02T08:17:36.012Z</time></trkpt><trkpt lat="44.98847851697422" lon="-0.6208401698896271"><ele>13.666666666666666</ele><time>2026-04-02T08:17:41.012Z</time></trkpt><trkpt lat="44.98854109425317" lon="-0.6208225818188113"><ele>14.833333333333332</ele><time>2026-04-02T08:18:07.012Z</time></trkpt><trkpt lat="44.98853054653595" lon="-0.6209135308220239"><ele>16.0</ele><time>2026-04-02T08:21:25.013Z</time></trkpt><trkpt lat="44.98857723511962" lon="-0.6209844882281685"><ele>16.0</ele><time>2026-04-02T08:21:32.013Z</time></trkpt><trkpt lat="44.98861617642818" lon="-0.6210675124319215"><ele>15.999999999999998</ele><time>2026-04-02T08:21:38.013Z</time></trkpt><trkpt lat="44.98859313435198" lon="-0.6211522970575295"><ele>16.0</ele><time>2026-04-02T08:21:44.013Z</time></trkpt><trkpt lat="44.988546070462576" lon="-0.621220266715826"><ele>16.0</ele><time>2026-04-02T08:21:49.013Z</time></trkpt><trkpt lat="44.988497280671034" lon="-0.6212889956058547"><ele>15.999999999999998</ele><time>2026-04-02T08:21:54.013Z</time></trkpt><trkpt lat="44.98845147952318" lon="-0.6213598028454766"><ele>16.0</ele><time>2026-04-02T08:22:00.013Z</time></trkpt><trkpt lat="44.988405650887465" lon="-0.6214276042836211"><ele>16.0</ele><time>2026-04-02T08:22:06.013Z</time></trkpt><trkpt lat="44.988367124387764" lon="-0.6215133107600538"><ele>15.142857142857142</ele><time>2026-04-02T08:22:12.013Z</time></trkpt><trkpt lat="44.98831628622155" lon="-0.6215908488567183"><ele>14.285714285714285</ele><time>2026-04-02T08:22:18.013Z</time></trkpt><trkpt lat="44.988267020784996" lon="-0.6216639018496937"><ele>13.428571428571427</ele><time>2026-04-02T08:22:24.013Z</time></trkpt><trkpt lat="44.988222504053496" lon="-0.6217384250351049"><ele>12.571428571428571</ele><time>2026-04-02T08:22:30.013Z</time></trkpt><trkpt lat="44.988178603062174" lon="-0.6218059609206302"><ele>11.714285714285715</ele><time>2026-04-02T08:22:35.013Z</time></trkpt><trkpt lat="44.98812969870479" lon="-0.6218792972401025"><ele>10.857142857142858</ele><time>2026-04-02T08:22:40.013Z</time></trkpt><trkpt lat="44.98806265468086" lon="-0.6219175455010625"><ele>10.0</ele><time>2026-04-02T08:22:47.013Z</time></trkpt><trkpt lat="44.98800222313827" lon="-0.6219538540409104"><ele>10.0</ele><time>2026-04-02T08:22:53.013Z</time></trkpt><trkpt lat="44.98793893881424" lon="-0.6219615191802849"><ele>10.0</ele><time>2026-04-02T08:22:58.013Z</time></trkpt><trkpt lat="44.98787385066086" lon="-0.621970098858921"><ele>10.0</ele><time>2026-04-02T08:23:03.013Z</time></trkpt><trkpt lat="44.98779845559879" lon="-0.6219816714414224"><ele>10.0</ele><time>2026-04-02T08:23:09.013Z</time></trkpt><trkpt lat="44.987728620869" lon="-0.6220017488972218"><ele>10.0</ele><time>2026-04-02T08:23:14.013Z</time></trkpt><trkpt lat="44.98765618338528" lon="-0.6220178465894204"><ele>10.0</ele><time>2026-04-02T08:23:20.013Z</time></trkpt><trkpt lat="44.987592272173885" lon="-0.622034002393558"><ele>10.0</ele><time>2026-04-02T08:23:25.013Z</time></trkpt><trkpt lat="44.98752894085047" lon="-0.6220446296061632"><ele>9.857142857142858</ele><time>2026-04-02T08:23:30.013Z</time></trkpt><trkpt lat="44.987464873637855" lon="-0.6220636806371174"><ele>9.714285714285715</ele><time>2026-04-02T08:23:35.013Z</time></trkpt><trkpt lat="44.98739464596105" lon="-0.6220673271160689"><ele>9.571428571428573</ele><time>2026-04-02T08:23:41.013Z</time></trkpt><trkpt lat="44.98733115367925" lon="-0.6220842550107154"><ele>9.428571428571429</ele><time>2026-04-02T08:23:46.013Z</time></trkpt><trkpt lat="44.98726417180313" lon="-0.6221062458480595"><ele>9.285714285714286</ele><time>2026-04-02T08:23:51.013Z</time></trkpt><trkpt lat="44.98719089092591" lon="-0.6221237075254977"><ele>9.142857142857144</ele><time>2026-04-02T08:23:57.013Z</time></trkpt><trkpt lat="44.987118943150534" lon="-0.6221310707941906"><ele>9.0</ele><time>2026-04-02T08:24:03.013Z</time></trkpt><trkpt lat="44.98705312540667" lon="-0.6221378323346821"><ele>9.000000000000002</ele><time>2026-04-02T08:24:08.013Z</time></trkpt><trkpt lat="44.986991380711984" lon="-0.622156162111218"><ele>9.0</ele><time>2026-04-02T08:24:13.013Z</time></trkpt><trkpt lat="44.986926813457885" lon="-0.6221716773261544"><ele>9.0</ele><time>2026-04-02T08:24:18.013Z</time></trkpt><trkpt lat="44.9868526852657" lon="-0.6221903854105423"><ele>9.0</ele><time>2026-04-02T08:24:24.013Z</time></trkpt><trkpt lat="44.986789912091886" lon="-0.622207600943149"><ele>9.0</ele><time>2026-04-02T08:24:29.013Z</time></trkpt><trkpt lat="44.986716113808015" lon="-0.6222159407801542"><ele>9.000000000000002</ele><time>2026-04-02T08:24:35.013Z</time></trkpt><trkpt lat="44.98665130724753" lon="-0.6222300909587408"><ele>9.0</ele><time>2026-04-02T08:24:40.013Z</time></trkpt><trkpt lat="44.98658711606093" lon="-0.6222397613402716"><ele>9.428571428571429</ele><time>2026-04-02T08:24:45.013Z</time></trkpt><trkpt lat="44.98652212570308" lon="-0.622255372845076"><ele>9.857142857142858</ele><time>2026-04-02T08:24:50.013Z</time></trkpt><trkpt lat="44.98645599850282" lon="-0.6222703408776108"><ele>10.285714285714285</ele><time>2026-04-02T08:24:55.014Z</time></trkpt><trkpt lat="44.98639198382859" lon="-0.6222849493866058"><ele>10.714285714285715</ele><time>2026-04-02T08:25:00.014Z</time></trkpt><trkpt lat="44.986326908176174" lon="-0.6223060205929964"><ele>11.142857142857142</ele><time>2026-04-02T08:25:05.014Z</time></trkpt><trkpt lat="44.98625936907389" lon="-0.6223198282620133"><ele>11.571428571428571</ele><time>2026-04-02T08:25:11.014Z</time></trkpt><trkpt lat="44.986188645059684" lon="-0.6223364620485622"><ele>12.0</ele><time>2026-04-02T08:25:17.014Z</time></trkpt><trkpt lat="44.986116218233086" lon="-0.6223621961180592"><ele>11.999999999999998</ele><time>2026-04-02T08:25:23.014Z</time></trkpt><trkpt lat="44.986051295855376" lon="-0.6223358204619432"><ele>12.0</ele><time>2026-04-02T08:25:29.014Z</time></trkpt><trkpt lat="44.986030715324105" lon="-0.6222450422497247"><ele>12.0</ele><time>2026-04-02T08:25:35.014Z</time></trkpt><trkpt lat="44.98601336554912" lon="-0.6221510821838833"><ele>12.0</ele><time>2026-04-02T08:25:41.014Z</time></trkpt><trkpt lat="44.98600033684738" lon="-0.62205010831152"><ele>12.0</ele><time>2026-04-02T08:25:47.014Z</time></trkpt><trkpt lat="44.98596774282388" lon="-0.621971411032656"><ele>11.999999999999998</ele><time>2026-04-02T08:25:52.014Z</time></trkpt><trkpt lat="44.98590487990031" lon="-0.621963278908187"><ele>12.0</ele><time>2026-04-02T08:25:57.014Z</time></trkpt><trkpt lat="44.98584169087765" lon="-0.6220189435835667"><ele>11.714285714285714</ele><time>2026-04-02T08:26:03.014Z</time></trkpt><trkpt lat="44.98579375487054" lon="-0.622077978375354"><ele>11.428571428571429</ele><time>2026-04-02T08:26:08.014Z</time></trkpt><trkpt lat="44.98573530576188" lon="-0.6221402271071083"><ele>11.142857142857142</ele><time>2026-04-02T08:26:14.014Z</time></trkpt><trkpt lat="44.98568360111128" lon="-0.6222032565821337"><ele>10.857142857142858</ele><time>2026-04-02T08:26:19.014Z</time></trkpt><trkpt lat="44.98563659959985" lon="-0.6222660352679702"><ele>10.571428571428571</ele><time>2026-04-02T08:26:24.014Z</time></trkpt><trkpt lat="44.985590199894425" lon="-0.622334921411276"><ele>10.285714285714285</ele><time>2026-04-02T08:26:29.014Z</time></trkpt><trkpt lat="44.98554279982838" lon="-0.6223956717509833"><ele>10.0</ele><time>2026-04-02T08:26:34.014Z</time></trkpt><trkpt lat="44.98549295981225" lon="-0.6224591451442639"><ele>10.0</ele><time>2026-04-02T08:26:39.014Z</time></trkpt><trkpt lat="44.98544718303501" lon="-0.6225231357605697"><ele>10.0</ele><time>2026-04-02T08:26:44.014Z</time></trkpt><trkpt lat="44.98540519064575" lon="-0.6226104447420122"><ele>10.0</ele><time>2026-04-02T08:26:50.014Z</time></trkpt><trkpt lat="44.98536617995371" lon="-0.6226843607928774"><ele>10.0</ele><time>2026-04-02T08:26:55.014Z</time></trkpt><trkpt lat="44.985334314435946" lon="-0.6227621236628613"><ele>10.0</ele><time>2026-04-02T08:27:00.014Z</time></trkpt><trkpt lat="44.98529468700852" lon="-0.6228349665884142"><ele>10.0</ele><time>2026-04-02T08:27:05.014Z</time></trkpt><trkpt lat="44.9852577343076" lon="-0.6229240973178223"><ele>10.0</ele><time>2026-04-02T08:27:11.014Z</time></trkpt><trkpt lat="44.985219168444274" lon="-0.6229958506259339"><ele>10.0</ele><time>2026-04-02T08:27:16.014Z</time></trkpt><trkpt lat="44.985175262584654" lon="-0.623065355891809"><ele>10.0</ele><time>2026-04-02T08:27:21.014Z</time></trkpt><trkpt lat="44.98513496404081" lon="-0.6231360597594444"><ele>10.0</ele><time>2026-04-02T08:27:26.014Z</time></trkpt><trkpt lat="44.98509340043512" lon="-0.6232211619794404"><ele>10.0</ele><time>2026-04-02T08:27:32.014Z</time></trkpt><trkpt lat="44.985049534211086" lon="-0.6232944982962654"><ele>10.0</ele><time>2026-04-02T08:27:38.014Z</time></trkpt><trkpt lat="44.98499798516884" lon="-0.6233712190262929"><ele>10.0</ele><time>2026-04-02T08:27:44.014Z</time></trkpt><trkpt lat="44.98494635791555" lon="-0.6234304485519558"><ele>10.0</ele><time>2026-04-02T08:27:49.014Z</time></trkpt><trkpt lat="44.98489779423226" lon="-0.6234907647035938"><ele>10.0</ele><time>2026-04-02T08:27:54.014Z</time></trkpt><trkpt lat="44.98484547599678" lon="-0.6235488468485495"><ele>10.0</ele><time>2026-04-02T08:27:59.014Z</time></trkpt><trkpt lat="44.98478813772305" lon="-0.6236097302001916"><ele>10.0</ele><time>2026-04-02T08:28:05.014Z</time></trkpt><trkpt lat="44.984734043184886" lon="-0.6236603859579147"><ele>10.0</ele><time>2026-04-02T08:28:11.014Z</time></trkpt><trkpt lat="44.98467587730511" lon="-0.6237300314687081"><ele>10.0</ele><time>2026-04-02T08:28:17.014Z</time></trkpt><trkpt lat="44.98465676406529" lon="-0.6236299340494438"><ele>10.0</ele><time>2026-04-02T08:28:30.014Z</time></trkpt><trkpt lat="44.984668425167335" lon="-0.6235202951920853"><ele>10.0</ele><time>2026-04-02T08:28:36.014Z</time></trkpt><trkpt lat="44.984690024071746" lon="-0.6234306213345016"><ele>10.0</ele><time>2026-04-02T08:28:42.014Z</time></trkpt><trkpt lat="44.9847189286938" lon="-0.6233387416678142"><ele>10.0</ele><time>2026-04-02T08:28:48.014Z</time></trkpt><trkpt lat="44.98473513678827" lon="-0.6232448776898353"><ele>10.0</ele><time>2026-04-02T08:28:53.014Z</time></trkpt><trkpt lat="44.984747787330214" lon="-0.6231562341187569"><ele>10.0</ele><time>2026-04-02T08:28:58.014Z</time></trkpt><trkpt lat="44.98477413631326" lon="-0.6230584045728115"><ele>10.0</ele><time>2026-04-02T08:29:04.014Z</time></trkpt><trkpt lat="44.984790286057994" lon="-0.6229668515622504"><ele>10.0</ele><time>2026-04-02T08:29:09.015Z</time></trkpt><trkpt lat="44.98480606086886" lon="-0.6228728557587659"><ele>10.0</ele><time>2026-04-02T08:29:14.015Z</time></trkpt><trkpt lat="44.984809426214376" lon="-0.6227738080122143"><ele>10.0</ele><time>2026-04-02T08:29:19.015Z</time></trkpt><trkpt lat="44.98482262912614" lon="-0.6226854279059783"><ele>10.0</ele><time>2026-04-02T08:29:24.014Z</time></trkpt><trkpt lat="44.984839629449404" lon="-0.6225978888200419"><ele>10.0</ele><time>2026-04-02T08:29:29.014Z</time></trkpt><trkpt lat="44.98484559423925" lon="-0.622500026060111"><ele>10.0</ele><time>2026-04-02T08:29:35.014Z</time></trkpt><trkpt lat="44.984859489730276" lon="-0.6224068654698793"><ele>10.0</ele><time>2026-04-02T08:29:40.014Z</time></trkpt><trkpt lat="44.984866329257635" lon="-0.6223014964481917"><ele>10.0</ele><time>2026-04-02T08:29:46.014Z</time></trkpt><trkpt lat="44.98487071746519" lon="-0.6222065347184801"><ele>10.0</ele><time>2026-04-02T08:29:51.014Z</time></trkpt><trkpt lat="44.9848776708567" lon="-0.62211369213517"><ele>10.0</ele><time>2026-04-02T08:29:56.014Z</time></trkpt><trkpt lat="44.984866110623194" lon="-0.6220214395981922"><ele>10.0</ele><time>2026-04-02T08:30:01.014Z</time></trkpt><trkpt lat="44.984858029465464" lon="-0.6219233206564961"><ele>10.0</ele><time>2026-04-02T08:30:06.014Z</time></trkpt><trkpt lat="44.98485348934388" lon="-0.6218226726845579"><ele>10.0</ele><time>2026-04-02T08:30:11.014Z</time></trkpt><trkpt lat="44.98484388654079" lon="-0.6217284600924111"><ele>10.0</ele><time>2026-04-02T08:30:16.014Z</time></trkpt><trkpt lat="44.98482370678146" lon="-0.6216396362357857"><ele>10.0</ele><time>2026-04-02T08:30:25.014Z</time></trkpt><trkpt lat="44.98483224051206" lon="-0.6215403843167975"><ele>10.0</ele><time>2026-04-02T08:30:30.014Z</time></trkpt><trkpt lat="44.984843040373065" lon="-0.6214471829012581"><ele>10.0</ele><time>2026-04-02T08:30:35.014Z</time></trkpt><trkpt lat="44.984847750199144" lon="-0.6213387869332071"><ele>10.0</ele><time>2026-04-02T08:30:40.014Z</time></trkpt><trkpt lat="44.984837936481725" lon="-0.6212464625597259"><ele>10.0</ele><time>2026-04-02T08:30:43.014Z</time></trkpt><trkpt lat="44.984822082775715" lon="-0.6211121765490462"><ele>10.0</ele><time>2026-04-02T08:30:47.014Z</time></trkpt><trkpt lat="44.984803711743155" lon="-0.62098021112421"><ele>10.0</ele><time>2026-04-02T08:30:50.014Z</time></trkpt><trkpt lat="44.98477662428003" lon="-0.6208571237995133"><ele>10.0</ele><time>2026-04-02T08:30:53.014Z</time></trkpt><trkpt lat="44.984767675118434" lon="-0.6207328608653199"><ele>10.0</ele><time>2026-04-02T08:30:56.014Z</time></trkpt><trkpt lat="44.984752686965436" lon="-0.6206072210777702"><ele>10.0</ele><time>2026-04-02T08:30:59.014Z</time></trkpt><trkpt lat="44.98473162424378" lon="-0.6204798859527892"><ele>10.0</ele><time>2026-04-02T08:31:02.014Z</time></trkpt><trkpt lat="44.98471726958909" lon="-0.6203627428587691"><ele>10.0</ele><time>2026-04-02T08:31:05.014Z</time></trkpt><trkpt lat="44.984708964594624" lon="-0.6202363249644639"><ele>10.0</ele><time>2026-04-02T08:31:08.014Z</time></trkpt><trkpt lat="44.984695841811124" lon="-0.6201464059831753"><ele>10.0</ele><time>2026-04-02T08:31:10.014Z</time></trkpt><trkpt lat="44.98467995089062" lon="-0.6200142432086747"><ele>10.333333333333334</ele><time>2026-04-02T08:31:13.015Z</time></trkpt><trkpt lat="44.98467024193295" lon="-0.619888184000095"><ele>10.666666666666668</ele><time>2026-04-02T08:31:16.015Z</time></trkpt><trkpt lat="44.9846573116911" lon="-0.6197746455451669"><ele>11.0</ele><time>2026-04-02T08:31:19.015Z</time></trkpt><trkpt lat="44.98464300529092" lon="-0.6196803475419611"><ele>11.333333333333334</ele><time>2026-04-02T08:31:21.015Z</time></trkpt><trkpt lat="44.984628860199365" lon="-0.6195635937856931"><ele>11.666666666666666</ele><time>2026-04-02T08:31:24.015Z</time></trkpt><trkpt lat="44.98461582817384" lon="-0.6194266530627675"><ele>12.0</ele><time>2026-04-02T08:31:27.015Z</time></trkpt><trkpt lat="44.984620362232405" lon="-0.6193035571207361"><ele>12.399999999999999</ele><time>2026-04-02T08:31:30.015Z</time></trkpt><trkpt lat="44.98461847376989" lon="-0.619175886583531"><ele>12.799999999999999</ele><time>2026-04-02T08:31:33.015Z</time></trkpt><trkpt lat="44.984620015362744" lon="-0.6190517882237181"><ele>13.2</ele><time>2026-04-02T08:31:36.015Z</time></trkpt><trkpt lat="44.98461981275256" lon="-0.618917706430253"><ele>13.6</ele><time>2026-04-02T08:31:39.015Z</time></trkpt><trkpt lat="44.9846170823011" lon="-0.6187871869825602"><ele>14.0</ele><time>2026-04-02T08:31:42.015Z</time></trkpt><trkpt lat="44.984615393325974" lon="-0.618658389113801"><ele>13.857142857142858</ele><time>2026-04-02T08:31:45.015Z</time></trkpt><trkpt lat="44.98461720246665" lon="-0.6185256316321381"><ele>13.714285714285715</ele><time>2026-04-02T08:31:48.015Z</time></trkpt><trkpt lat="44.984613570188934" lon="-0.6184365979951854"><ele>13.571428571428571</ele><time>2026-04-02T08:31:50.015Z</time></trkpt><trkpt lat="44.98461820010283" lon="-0.6183464078229698"><ele>13.428571428571429</ele><time>2026-04-02T08:31:52.015Z</time></trkpt><trkpt lat="44.9846094301317" lon="-0.6182290748239818"><ele>13.285714285714286</ele><time>2026-04-02T08:31:55.015Z</time></trkpt><trkpt lat="44.984599160187805" lon="-0.61814067091222"><ele>13.142857142857142</ele><time>2026-04-02T08:31:59.015Z</time></trkpt><trkpt lat="44.98459652825284" lon="-0.6180369603172067"><ele>13.0</ele><time>2026-04-02T08:32:35.015Z</time></trkpt><trkpt lat="44.98459150918558" lon="-0.6179443158803272"><ele>13.0</ele><time>2026-04-02T08:32:37.015Z</time></trkpt><trkpt lat="44.984591615151196" lon="-0.6178433754274013"><ele>13.0</ele><time>2026-04-02T08:32:39.015Z</time></trkpt><trkpt lat="44.98458032393413" lon="-0.617749118877874"><ele>13.0</ele><time>2026-04-02T08:32:42.015Z</time></trkpt><trkpt lat="44.98456935015056" lon="-0.6176532676974584"><ele>13.0</ele><time>2026-04-02T08:32:44.015Z</time></trkpt><trkpt lat="44.9845518341874" lon="-0.6175423919266583"><ele>13.0</ele><time>2026-04-02T08:32:47.015Z</time></trkpt><trkpt lat="44.984545949627325" lon="-0.6174408526209035"><ele>13.0</ele><time>2026-04-02T08:32:50.015Z</time></trkpt><trkpt lat="44.98452504682119" lon="-0.6173378225743148"><ele>13.0</ele><time>2026-04-02T08:32:55.015Z</time></trkpt><trkpt lat="44.98451157473578" lon="-0.6172415606715684"><ele>13.142857142857142</ele><time>2026-04-02T08:33:00.015Z</time></trkpt><trkpt lat="44.98450421423479" lon="-0.6171507480334284"><ele>13.285714285714286</ele><time>2026-04-02T08:33:06.015Z</time></trkpt><trkpt lat="44.984492373537506" lon="-0.6170498470837997"><ele>13.428571428571429</ele><time>2026-04-02T08:33:14.016Z</time></trkpt><trkpt lat="44.984480309127974" lon="-0.6169601630761425"><ele>13.571428571428571</ele><time>2026-04-02T08:33:18.016Z</time></trkpt><trkpt lat="44.98447199728668" lon="-0.6168582241104366"><ele>13.714285714285715</ele><time>2026-04-02T08:33:22.016Z</time></trkpt><trkpt lat="44.98446097334143" lon="-0.616757657458579"><ele>13.857142857142858</ele><time>2026-04-02T08:33:26.015Z</time></trkpt><trkpt lat="44.98444116439996" lon="-0.6166494787727621"><ele>14.0</ele><time>2026-04-02T08:33:29.016Z</time></trkpt><trkpt lat="44.984422402733216" lon="-0.6165579791912148"><ele>13.714285714285714</ele><time>2026-04-02T08:33:31.016Z</time></trkpt><trkpt lat="44.984406534442975" lon="-0.6164706568742108"><ele>13.428571428571429</ele><time>2026-04-02T08:33:33.016Z</time></trkpt><trkpt lat="44.984389145201305" lon="-0.6163835033255319"><ele>13.142857142857142</ele><time>2026-04-02T08:33:35.016Z</time></trkpt><trkpt lat="44.98436275179418" lon="-0.6163003928492401"><ele>12.857142857142858</ele><time>2026-04-02T08:33:37.016Z</time></trkpt><trkpt lat="44.98434279872198" lon="-0.616209894834727"><ele>12.571428571428571</ele><time>2026-04-02T08:33:39.016Z</time></trkpt><trkpt lat="44.984312202863784" lon="-0.6160825026979896"><ele>12.285714285714285</ele><time>2026-04-02T08:33:42.016Z</time></trkpt><trkpt lat="44.9842930325791" lon="-0.615996374556621"><ele>12.0</ele><time>2026-04-02T08:33:44.016Z</time></trkpt><trkpt lat="44.984270071891274" lon="-0.6159129700948787"><ele>12.0</ele><time>2026-04-02T08:33:46.016Z</time></trkpt><trkpt lat="44.98425861574648" lon="-0.6158205540158342"><ele>12.0</ele><time>2026-04-02T08:33:48.016Z</time></trkpt><trkpt lat="44.98423893755551" lon="-0.6156962297086536"><ele>12.0</ele><time>2026-04-02T08:33:51.016Z</time></trkpt><trkpt lat="44.98421307335518" lon="-0.6155964387721502"><ele>12.0</ele><time>2026-04-02T08:33:54.016Z</time></trkpt><trkpt lat="44.98419000936376" lon="-0.6154878247525829"><ele>12.0</ele><time>2026-04-02T08:33:57.016Z</time></trkpt><trkpt lat="44.9841703938908" lon="-0.6153919949122545"><ele>12.0</ele><time>2026-04-02T08:34:00.016Z</time></trkpt><trkpt lat="44.98415504424855" lon="-0.6152949209167898"><ele>11.857142857142856</ele><time>2026-04-02T08:34:03.016Z</time></trkpt><trkpt lat="44.9841321243027" lon="-0.615189745256254"><ele>11.714285714285714</ele><time>2026-04-02T08:34:06.016Z</time></trkpt><trkpt lat="44.98410194658723" lon="-0.6150929166078161"><ele>11.571428571428571</ele><time>2026-04-02T08:34:09.016Z</time></trkpt><trkpt lat="44.98407376994805" lon="-0.6149961033563583"><ele>11.428571428571427</ele><time>2026-04-02T08:34:12.016Z</time></trkpt><trkpt lat="44.98405620865318" lon="-0.6149017239936673"><ele>11.285714285714285</ele><time>2026-04-02T08:34:15.016Z</time></trkpt><trkpt lat="44.98403882867134" lon="-0.6148013453985643"><ele>11.142857142857142</ele><time>2026-04-02T08:34:26.016Z</time></trkpt><trkpt lat="44.984010821668726" lon="-0.6147153115081595"><ele>11.0</ele><time>2026-04-02T08:34:32.016Z</time></trkpt><trkpt lat="44.98399002849372" lon="-0.6146298615330734"><ele>11.0</ele><time>2026-04-02T08:34:39.016Z</time></trkpt><trkpt lat="44.98396422819005" lon="-0.6145380716038531"><ele>11.0</ele><time>2026-04-02T08:34:45.016Z</time></trkpt><trkpt lat="44.98394766408975" lon="-0.6144434811793666"><ele>11.0</ele><time>2026-04-02T08:34:52.016Z</time></trkpt><trkpt lat="44.98392222073039" lon="-0.6143592839264523"><ele>11.0</ele><time>2026-04-02T08:34:58.016Z</time></trkpt><trkpt lat="44.98390102521744" lon="-0.614270594169352"><ele>11.0</ele><time>2026-04-02T08:35:06.016Z</time></trkpt><trkpt lat="44.983882515670985" lon="-0.6141765703505427"><ele>11.0</ele><time>2026-04-02T08:35:16.016Z</time></trkpt><trkpt lat="44.98391275179469" lon="-0.6143336878635935"><ele>11.285714285714286</ele><time>2026-04-02T08:36:04.015Z</time></trkpt><trkpt lat="44.983892583280834" lon="-0.6142473173061002"><ele>11.571428571428571</ele><time>2026-04-02T08:36:09.015Z</time></trkpt><trkpt lat="44.98387643634924" lon="-0.6141411330440592"><ele>11.857142857142858</ele><time>2026-04-02T08:36:15.015Z</time></trkpt><trkpt lat="44.98385059984822" lon="-0.6140596411234169"><ele>12.142857142857142</ele><time>2026-04-02T08:36:20.015Z</time></trkpt><trkpt lat="44.98382175417041" lon="-0.6139666105860536"><ele>12.428571428571429</ele><time>2026-04-02T08:36:25.015Z</time></trkpt><trkpt lat="44.98379285549858" lon="-0.6138797450984421"><ele>12.714285714285714</ele><time>2026-04-02T08:36:30.016Z</time></trkpt><trkpt lat="44.983770321016934" lon="-0.6137898071066886"><ele>13.0</ele><time>2026-04-02T08:36:35.016Z</time></trkpt><trkpt lat="44.98374520881424" lon="-0.6137046829934011"><ele>12.714285714285714</ele><time>2026-04-02T08:36:40.016Z</time></trkpt><trkpt lat="44.98372541688226" lon="-0.61361382767014"><ele>12.428571428571429</ele><time>2026-04-02T08:36:46.016Z</time></trkpt><trkpt lat="44.98370792615991" lon="-0.6135269909335688"><ele>12.142857142857142</ele><time>2026-04-02T08:36:51.016Z</time></trkpt><trkpt lat="44.98368089167861" lon="-0.6134250001999457"><ele>11.857142857142858</ele><time>2026-04-02T08:36:57.016Z</time></trkpt><trkpt lat="44.983648430479" lon="-0.613335185391701"><ele>11.571428571428571</ele><time>2026-04-02T08:37:02.016Z</time></trkpt><trkpt lat="44.98363206652806" lon="-0.6132366116770654"><ele>11.285714285714286</ele><time>2026-04-02T08:37:07.016Z</time></trkpt><trkpt lat="44.98361289321654" lon="-0.6131363362562746"><ele>11.0</ele><time>2026-04-02T08:37:12.016Z</time></trkpt><trkpt lat="44.98359048487905" lon="-0.6130316485582741"><ele>11.0</ele><time>2026-04-02T08:37:17.016Z</time></trkpt><trkpt lat="44.983572302362425" lon="-0.6129433977173433"><ele>11.0</ele><time>2026-04-02T08:37:20.016Z</time></trkpt><trkpt lat="44.983544501553816" lon="-0.612849971082365"><ele>11.0</ele><time>2026-04-02T08:37:23.016Z</time></trkpt><trkpt lat="44.98352409464479" lon="-0.6127466025522862"><ele>11.0</ele><time>2026-04-02T08:37:26.016Z</time></trkpt><trkpt lat="44.983500057232504" lon="-0.6126464197130816"><ele>11.0</ele><time>2026-04-02T08:37:28.016Z</time></trkpt><trkpt lat="44.983438660115816" lon="-0.6125201811257298"><ele>11.0</ele><time>2026-04-02T08:37:30.017Z</time></trkpt><trkpt lat="44.983380305430295" lon="-0.6123950861946024"><ele>10.5</ele><time>2026-04-02T08:37:32.017Z</time></trkpt><trkpt lat="44.983338231552324" lon="-0.6122669601253159"><ele>10.0</ele><time>2026-04-02T08:37:34.016Z</time></trkpt><trkpt lat="44.98329980878746" lon="-0.6121454702510609"><ele>9.5</ele><time>2026-04-02T08:37:36.016Z</time></trkpt><trkpt lat="44.983267537615156" lon="-0.612038903296082"><ele>9.0</ele><time>2026-04-02T08:37:38.016Z</time></trkpt><trkpt lat="44.9832514433439" lon="-0.6119388547659098"><ele>8.5</ele><time>2026-04-02T08:37:41.016Z</time></trkpt><trkpt lat="44.9832209696724" lon="-0.611839213361334"><ele>8.0</ele><time>2026-04-02T08:37:45.016Z</time></trkpt><trkpt lat="44.98320184399355" lon="-0.6117533217083384"><ele>7.999999999999999</ele><time>2026-04-02T08:37:49.016Z</time></trkpt><trkpt lat="44.983182955228585" lon="-0.611647360331321"><ele>8.0</ele><time>2026-04-02T08:37:52.016Z</time></trkpt><trkpt lat="44.983154283496575" lon="-0.611547456034836"><ele>8.0</ele><time>2026-04-02T08:37:56.016Z</time></trkpt><trkpt lat="44.983138666787895" lon="-0.6114605729397206"><ele>8.0</ele><time>2026-04-02T08:37:58.016Z</time></trkpt><trkpt lat="44.98311206352002" lon="-0.6113468515756052"><ele>7.999999999999999</ele><time>2026-04-02T08:38:01.016Z</time></trkpt><trkpt lat="44.98309252725278" lon="-0.611242100150117"><ele>8.0</ele><time>2026-04-02T08:38:04.016Z</time></trkpt><trkpt lat="44.98307014144027" lon="-0.6111315214727474"><ele>8.166666666666666</ele><time>2026-04-02T08:38:07.016Z</time></trkpt><trkpt lat="44.98305309056411" lon="-0.6110179054275527"><ele>8.333333333333332</ele><time>2026-04-02T08:38:10.016Z</time></trkpt><trkpt lat="44.98304110863421" lon="-0.6109153138662325"><ele>8.5</ele><time>2026-04-02T08:38:13.016Z</time></trkpt><trkpt lat="44.98303291377311" lon="-0.6108155224736959"><ele>8.666666666666666</ele><time>2026-04-02T08:38:16.016Z</time></trkpt><trkpt lat="44.98301839832824" lon="-0.6106904704717211"><ele>8.833333333333334</ele><time>2026-04-02T08:38:19.016Z</time></trkpt><trkpt lat="44.9829977785897" lon="-0.6105829078407894"><ele>9.0</ele><time>2026-04-02T08:38:22.016Z</time></trkpt><trkpt lat="44.98298908767437" lon="-0.6104747816069426"><ele>9.0</ele><time>2026-04-02T08:38:25.016Z</time></trkpt><trkpt lat="44.98297903349363" lon="-0.610356084355367"><ele>9.0</ele><time>2026-04-02T08:38:28.016Z</time></trkpt><trkpt lat="44.982966779249644" lon="-0.6102685873277517"><ele>9.0</ele><time>2026-04-02T08:38:30.016Z</time></trkpt><trkpt lat="44.98294852758454" lon="-0.6101618556946704"><ele>9.0</ele><time>2026-04-02T08:38:33.016Z</time></trkpt><trkpt lat="44.98294416615314" lon="-0.6100557314112032"><ele>9.0</ele><time>2026-04-02T08:38:36.016Z</time></trkpt><trkpt lat="44.982928051292326" lon="-0.609947486212779"><ele>9.0</ele><time>2026-04-02T08:38:39.016Z</time></trkpt><trkpt lat="44.9829192161912" lon="-0.6098324212443607"><ele>9.0</ele><time>2026-04-02T08:38:42.016Z</time></trkpt><trkpt lat="44.982909729195136" lon="-0.6097070373465227"><ele>9.0</ele><time>2026-04-02T08:38:45.016Z</time></trkpt><trkpt lat="44.98290680323333" lon="-0.6095636302951246"><ele>9.0</ele><time>2026-04-02T08:38:48.016Z</time></trkpt><trkpt lat="44.98290247307417" lon="-0.6094638784862977"><ele>9.0</ele><time>2026-04-02T08:38:50.016Z</time></trkpt><trkpt lat="44.98289419271088" lon="-0.6093755953301222"><ele>9.0</ele><time>2026-04-02T08:38:52.016Z</time></trkpt><trkpt lat="44.98289324669" lon="-0.6092848751907424"><ele>9.0</ele><time>2026-04-02T08:38:54.016Z</time></trkpt><trkpt lat="44.98289016796351" lon="-0.60919184707686"><ele>9.000000000000002</ele><time>2026-04-02T08:38:56.016Z</time></trkpt><trkpt lat="44.98287717426101" lon="-0.6090513739185891"><ele>9.0</ele><time>2026-04-02T08:38:59.016Z</time></trkpt><trkpt lat="44.98286080958336" lon="-0.6089507650017332"><ele>9.0</ele><time>2026-04-02T08:39:01.016Z</time></trkpt><trkpt lat="44.98285734857728" lon="-0.6088513204672444"><ele>9.0</ele><time>2026-04-02T08:39:03.016Z</time></trkpt><trkpt lat="44.98284111773858" lon="-0.6087549570083509"><ele>9.0</ele><time>2026-04-02T08:39:05.016Z</time></trkpt><trkpt lat="44.98283124460838" lon="-0.608664556837711"><ele>9.000000000000002</ele><time>2026-04-02T08:39:07.016Z</time></trkpt><trkpt lat="44.9828277892365" lon="-0.6085671193233478"><ele>9.0</ele><time>2026-04-02T08:39:09.016Z</time></trkpt><trkpt lat="44.982804683892915" lon="-0.6084559670120071"><ele>8.857142857142858</ele><time>2026-04-02T08:39:11.016Z</time></trkpt><trkpt lat="44.98279084437802" lon="-0.6083579544622711"><ele>8.714285714285715</ele><time>2026-04-02T08:39:13.016Z</time></trkpt><trkpt lat="44.982779878363736" lon="-0.6082699138852432"><ele>8.571428571428571</ele><time>2026-04-02T08:39:15.016Z</time></trkpt><trkpt lat="44.98276344513698" lon="-0.6081837846817173"><ele>8.428571428571429</ele><time>2026-04-02T08:39:17.016Z</time></trkpt><trkpt lat="44.98274533103795" lon="-0.6080535900064952"><ele>8.285714285714285</ele><time>2026-04-02T08:39:20.016Z</time></trkpt><trkpt lat="44.9827331619952" lon="-0.6079620534537346"><ele>8.142857142857142</ele><time>2026-04-02T08:39:22.016Z</time></trkpt><trkpt lat="44.98271588808074" lon="-0.6078598271894443"><ele>8.0</ele><time>2026-04-02T08:39:24.016Z</time></trkpt><trkpt lat="44.982694294481924" lon="-0.6077740390591391"><ele>7.999999999999999</ele><time>2026-04-02T08:39:26.016Z</time></trkpt><trkpt lat="44.98269775462908" lon="-0.6076442478054852"><ele>8.0</ele><time>2026-04-02T08:39:29.016Z</time></trkpt><trkpt lat="44.98268135415869" lon="-0.6075536898307143"><ele>8.0</ele><time>2026-04-02T08:39:31.016Z</time></trkpt><trkpt lat="44.98265830305612" lon="-0.6074476901447486"><ele>8.0</ele><time>2026-04-02T08:39:35.016Z</time></trkpt><trkpt lat="44.98261462048864" lon="-0.6073178414195354"><ele>7.999999999999999</ele><time>2026-04-02T08:40:11.017Z</time></trkpt><trkpt lat="44.98259363805104" lon="-0.6072326830406322"><ele>8.0</ele><time>2026-04-02T08:40:18.017Z</time></trkpt><trkpt lat="44.98257878453257" lon="-0.6071412817589004"><ele>8.0</ele><time>2026-04-02T08:40:23.017Z</time></trkpt><trkpt lat="44.98257292708475" lon="-0.6070485223389533"><ele>7.999999999999999</ele><time>2026-04-02T08:40:28.017Z</time></trkpt><trkpt lat="44.98256006690896" lon="-0.6069585104984584"><ele>8.0</ele><time>2026-04-02T08:40:33.017Z</time></trkpt><trkpt lat="44.98254798867233" lon="-0.6068651666811555"><ele>8.0</ele><time>2026-04-02T08:40:38.017Z</time></trkpt><trkpt lat="44.98253139197316" lon="-0.6067616519125558"><ele>7.999999999999999</ele><time>2026-04-02T08:40:44.017Z</time></trkpt><trkpt lat="44.98251765024121" lon="-0.6066728867496779"><ele>8.0</ele><time>2026-04-02T08:40:49.017Z</time></trkpt><trkpt lat="44.98250411973853" lon="-0.6065819472311117"><ele>8.0</ele><time>2026-04-02T08:40:54.017Z</time></trkpt><trkpt lat="44.98249441099637" lon="-0.6064825531083916"><ele>7.857142857142857</ele><time>2026-04-02T08:40:59.017Z</time></trkpt><trkpt lat="44.98248828530635" lon="-0.6063910574312104"><ele>7.7142857142857135</ele><time>2026-04-02T08:41:04.017Z</time></trkpt><trkpt lat="44.982480793349545" lon="-0.6062999612756564"><ele>7.571428571428571</ele><time>2026-04-02T08:41:09.017Z</time></trkpt><trkpt lat="44.98247158906954" lon="-0.6062045973432383"><ele>7.428571428571429</ele><time>2026-04-02T08:41:15.017Z</time></trkpt><trkpt lat="44.98246042381827" lon="-0.6061068339426834"><ele>7.285714285714286</ele><time>2026-04-02T08:41:21.017Z</time></trkpt><trkpt lat="44.982444068868766" lon="-0.6060096076268043"><ele>7.142857142857142</ele><time>2026-04-02T08:41:27.017Z</time></trkpt><trkpt lat="44.982429792269706" lon="-0.605904450144906"><ele>7.0</ele><time>2026-04-02T08:41:33.017Z</time></trkpt><trkpt lat="44.98240532190728" lon="-0.6058124510642625"><ele>7.0</ele><time>2026-04-02T08:41:39.017Z</time></trkpt><trkpt lat="44.98239542848226" lon="-0.6057173854482636"><ele>7.0</ele><time>2026-04-02T08:41:44.017Z</time></trkpt><trkpt lat="44.98237928732635" lon="-0.6056243177679459"><ele>7.0</ele><time>2026-04-02T08:41:50.017Z</time></trkpt><trkpt lat="44.98237279808726" lon="-0.6055301263606636"><ele>7.0</ele><time>2026-04-02T08:41:55.017Z</time></trkpt><trkpt lat="44.98234973212957" lon="-0.605443392509788"><ele>7.0</ele><time>2026-04-02T08:42:00.017Z</time></trkpt><trkpt lat="44.98233980212903" lon="-0.6053494680961833"><ele>7.0</ele><time>2026-04-02T08:42:05.017Z</time></trkpt><trkpt lat="44.98232980119519" lon="-0.6052611247702793"><ele>7.0</ele><time>2026-04-02T08:42:10.017Z</time></trkpt><trkpt lat="44.9823226381573" lon="-0.6051616614263844"><ele>7.166666666666667</ele><time>2026-04-02T08:42:17.017Z</time></trkpt><trkpt lat="44.98231849250939" lon="-0.6050501461221095"><ele>7.333333333333334</ele><time>2026-04-02T08:42:22.017Z</time></trkpt><trkpt lat="44.98231252477743" lon="-0.6049395688460147"><ele>7.5</ele><time>2026-04-02T08:42:26.017Z</time></trkpt><trkpt lat="44.98229214900414" lon="-0.6048317605773473"><ele>7.666666666666666</ele><time>2026-04-02T08:42:30.017Z</time></trkpt><trkpt lat="44.982269373422035" lon="-0.604748080207759"><ele>7.833333333333333</ele><time>2026-04-02T08:42:32.017Z</time></trkpt><trkpt lat="44.982262829520145" lon="-0.6046301453732709"><ele>8.0</ele><time>2026-04-02T08:42:35.017Z</time></trkpt><trkpt lat="44.982256565118455" lon="-0.6045104677615978"><ele>8.5</ele><time>2026-04-02T08:42:38.017Z</time></trkpt><trkpt lat="44.98224680161068" lon="-0.6043933786449236"><ele>9.0</ele><time>2026-04-02T08:42:41.017Z</time></trkpt><trkpt lat="44.982242233229236" lon="-0.6042708132956908"><ele>9.5</ele><time>2026-04-02T08:42:44.017Z</time></trkpt><trkpt lat="44.98224698965048" lon="-0.6041659444825948"><ele>10.0</ele><time>2026-04-02T08:42:47.017Z</time></trkpt><trkpt lat="44.98221389793144" lon="-0.6040741975789498"><ele>10.5</ele><time>2026-04-02T08:42:50.017Z</time></trkpt><trkpt lat="44.98220767524778" lon="-0.6039825728823184"><ele>11.0</ele><time>2026-04-02T08:42:52.017Z</time></trkpt><trkpt lat="44.98221803684263" lon="-0.6038830840548974"><ele>11.0</ele><time>2026-04-02T08:42:55.017Z</time></trkpt><trkpt lat="44.98222017767262" lon="-0.6037699145467412"><ele>11.0</ele><time>2026-04-02T08:42:58.017Z</time></trkpt><trkpt lat="44.98225092197594" lon="-0.6036708831008929"><ele>11.0</ele><time>2026-04-02T08:43:00.017Z</time></trkpt><trkpt lat="44.982294026288535" lon="-0.603492447777486"><ele>11.0</ele><time>2026-04-02T08:43:03.017Z</time></trkpt><trkpt lat="44.982327465159344" lon="-0.6033982660046979"><ele>11.0</ele><time>2026-04-02T08:43:04.017Z</time></trkpt><trkpt lat="44.98238601451444" lon="-0.6033443479038468"><ele>11.0</ele><time>2026-04-02T08:43:05.017Z</time></trkpt><trkpt lat="44.982436163372554" lon="-0.6032480240847798"><ele>11.0</ele><time>2026-04-02T08:43:07.017Z</time></trkpt><trkpt lat="44.982444201912884" lon="-0.6031593093994297"><ele>11.0</ele><time>2026-04-02T08:43:09.017Z</time></trkpt></trkseg></trk></gpx>